Observation data for Coyanosa on 01/10/2018      Previous  Date  Next       Current Mesonet Observations  Soil Data  Daily Summary Page  Observations in Plain Language
KCO1 100600Z 11006KT 07/M00 A2988 RMK A01 T00701002  RH  060%=      5-min Rain = 0
KCO1 100601Z 11007KT 07/M00 A2988 RMK A01 T00691002  RH  061%=      5-min Rain = 0
KCO1 100602Z 12007KT 07/M00 A2988 RMK A01 T00681002  RH  061%=      5-min Rain = 0
KCO1 100603Z 12007KT 07/M00 A2988 RMK A01 T00661003  RH  061%=      5-min Rain = 0
KCO1 100604Z 12007KT 07/M00 A2988 RMK A01 T00661003  RH  062%=      5-min Rain = 0
KCO1 100605Z 12007KT 07/M00 A2988 RMK A01 T00661002  RH  062%=      5-min Rain = 0
KCO1 100606Z 12006KT 07/M00 A2988 RMK A01 T00651002  RH  062%=      5-min Rain = 0
KCO1 100607Z 12006KT 07/M00 A2988 RMK A01 T00651002  RH  062%=      5-min Rain = 0
KCO1 100608Z 12005KT 07/M00 A2988 RMK A01 T00661001  RH  062%=      5-min Rain = 0
KCO1 100609Z 12005KT 07/M00 A2988 RMK A01 T00661001  RH  062%=      5-min Rain = 0
KCO1 100610Z 12005KT 07/M00 A2988 RMK A01 T00671001  RH  062%=      5-min Rain = 0
KCO1 100611Z 11005KT 07/M00 A2988 RMK A01 T00671001  RH  062%=      5-min Rain = 0
KCO1 100612Z 11005KT 07/00 A2988 RMK A01 T006800-0  RH  062%=      5-min Rain = 0
KCO1 100613Z 11005KT 07/00 A2988 RMK A01 T006900-0  RH  062%=      5-min Rain = 0
KCO1 100614Z 12004KT 07/00 A2988 RMK A01 T006900-0  RH  061%=      5-min Rain = 0
KCO1 100615Z 11005KT 07/00 A2988 RMK A01 T006900-0  RH  061%=      5-min Rain = 0
KCO1 100616Z 11006KT 07/00 A2988 RMK A01 T006900-0  RH  061%=      5-min Rain = 0
KCO1 100617Z 11006KT 07/00 A2988 RMK A01 T00690000  RH  062%=      5-min Rain = 0
KCO1 100618Z 11006KT 07/00 A2988 RMK A01 T00690000  RH  062%=      5-min Rain = 0
KCO1 100619Z 11007KT 07/00 A2988 RMK A01 T00680000  RH  062%=      5-min Rain = 0
KCO1 100620Z 11007KT 07/00 A2988 RMK A01 T00680000  RH  062%=      5-min Rain = 0
KCO1 100621Z 11007KT 07/00 A2988 RMK A01 T00680000  RH  062%=      5-min Rain = 0
KCO1 100622Z 11007KT 07/00 A2988 RMK A01 T00690001  RH  062%=      5-min Rain = 0
KCO1 100623Z 12007KT 07/00 A2988 RMK A01 T00700001  RH  062%=      5-min Rain = 0
KCO1 100624Z 12007KT 07/00 A2988 RMK A01 T00700001  RH  062%=      5-min Rain = 0
KCO1 100625Z 12007KT 07/00 A2988 RMK A01 T00700001  RH  061%=      5-min Rain = 0
KCO1 100626Z 12007KT 07/00 A2988 RMK A01 T00700001  RH  061%=      5-min Rain = 0
KCO1 100627Z 12008KT 07/00 A2988 RMK A01 T00710002  RH  061%=      5-min Rain = 0
KCO1 100628Z 12008KT 07/00 A2988 RMK A01 T00710001  RH  061%=      5-min Rain = 0
KCO1 100629Z 12008KT 07/00 A2988 RMK A01 T00710002  RH  061%=      5-min Rain = 0
KCO1 100630Z 12008KT 07/00 A2988 RMK A01 T00720002  RH  061%=      5-min Rain = 0
KCO1 100631Z 12009KT 07/00 A2988 RMK A01 T00720002  RH  061%=      5-min Rain = 0
KCO1 100632Z 12009KT 07/00 A2988 RMK A01 T00720002  RH  061%=      5-min Rain = 0
KCO1 100633Z 12009KT 07/00 A2988 RMK A01 T00740003  RH  061%=      5-min Rain = 0
KCO1 100634Z 12009KT 08/00 A2987 RMK A01 T00750003  RH  061%=      5-min Rain = 0
KCO1 100635Z 12009KT 08/00 A2988 RMK A01 T00750003  RH  060%=      5-min Rain = 0
KCO1 100636Z 12009KT 08/00 A2987 RMK A01 T00750003  RH  060%=      5-min Rain = 0
KCO1 100637Z 12009KT 08/00 A2987 RMK A01 T00760004  RH  060%=      5-min Rain = 0
KCO1 100638Z 11009KT 08/00 A2987 RMK A01 T00770004  RH  060%=      5-min Rain = 0
KCO1 100639Z 11008KT 08/00 A2987 RMK A01 T00780004  RH  060%=      5-min Rain = 0
KCO1 100640Z 12008KT 08/00 A2987 RMK A01 T00780004  RH  060%=      5-min Rain = 0
KCO1 100641Z 12008KT 08/00 A2987 RMK A01 T00790004  RH  059%=      5-min Rain = 0
KCO1 100642Z 12008KT 08/00 A2987 RMK A01 T00790004  RH  059%=      5-min Rain = 0
KCO1 100643Z 12008KT 08/00 A2987 RMK A01 T00790004  RH  059%=      5-min Rain = 0
KCO1 100644Z 12008KT 08/00 A2987 RMK A01 T00790004  RH  059%=      5-min Rain = 0
KCO1 100645Z 12008KT 08/00 A2987 RMK A01 T00790004  RH  059%=      5-min Rain = 0
KCO1 100646Z 12009KT 08/00 A2987 RMK A01 T00790004  RH  059%=      5-min Rain = 0
KCO1 100647Z 12009KT 08/01 A2987 RMK A01 T00790005  RH  059%=      5-min Rain = 0
KCO1 100648Z 12009KT 08/01 A2987 RMK A01 T00800006  RH  059%=      5-min Rain = 0
KCO1 100649Z 12009KT 08/01 A2987 RMK A01 T00820006  RH  059%=      5-min Rain = 0
KCO1 100650Z 12009KT 08/01 A2987 RMK A01 T00830006  RH  058%=      5-min Rain = 0
KCO1 100651Z 12009KT 08/01 A2986 RMK A01 T00830006  RH  058%=      5-min Rain = 0
KCO1 100652Z 12009KT 08/01 A2986 RMK A01 T00840006  RH  058%=      5-min Rain = 0
KCO1 100653Z 12009KT 09/01 A2986 RMK A01 T00850007  RH  058%=      5-min Rain = 0
KCO1 100654Z 12009KT 09/01 A2986 RMK A01 T00850006  RH  058%=      5-min Rain = 0
KCO1 100655Z 12009KT 09/01 A2986 RMK A01 T00860007  RH  057%=      5-min Rain = 0
KCO1 100656Z 12008KT 09/01 A2986 RMK A01 T00860007  RH  057%=      5-min Rain = 0
KCO1 100657Z 12009KT 09/01 A2986 RMK A01 T00870007  RH  057%=      5-min Rain = 0
KCO1 100658Z 12008KT 09/01 A2986 RMK A01 T00870007  RH  057%=      5-min Rain = 0
KCO1 100659Z 11008KT 09/01 A2986 RMK A01 T00870007  RH  057%=      5-min Rain = 0
KCO1 100700Z 12008KT 09/01 A2986 RMK A01 T00870006  RH  057%=      5-min Rain = 0
KCO1 100701Z 11008KT 09/01 A2986 RMK A01 T00870006  RH  057%=      5-min Rain = 0
KCO1 100702Z 11007KT 09/01 A2986 RMK A01 T00870007  RH  057%=      5-min Rain = 0
KCO1 100703Z 11009KT 09/01 A2986 RMK A01 T00860007  RH  057%=      5-min Rain = 0
KCO1 100704Z 11008KT 09/01 A2986 RMK A01 T00860007  RH  058%=      5-min Rain = 0
KCO1 100705Z 11008KT 09/01 A2986 RMK A01 T00860007  RH  058%=      5-min Rain = 0
KCO1 100706Z 11008KT 09/01 A2986 RMK A01 T00860008  RH  058%=      5-min Rain = 0
KCO1 100707Z 11008KT 09/01 A2986 RMK A01 T00860008  RH  058%=      5-min Rain = 0
KCO1 100708Z 11009KT 09/01 A2986 RMK A01 T00870008  RH  058%=      5-min Rain = 0
KCO1 100709Z 11009KT 09/01 A2986 RMK A01 T00860008  RH  058%=      5-min Rain = 0
KCO1 100710Z 11009KT 09/01 A2986 RMK A01 T00860008  RH  058%=      5-min Rain = 0
KCO1 100711Z 11009KT 09/01 A2986 RMK A01 T00860008  RH  058%=      5-min Rain = 0
KCO1 100712Z 11009KT 09/01 A2986 RMK A01 T00860008  RH  058%=      5-min Rain = 0
KCO1 100713Z 11009KT 09/01 A2986 RMK A01 T00870009  RH  058%=      5-min Rain = 0
KCO1 100714Z 11009KT 09/01 A2986 RMK A01 T00860008  RH  058%=      5-min Rain = 0
KCO1 100715Z 11009KT 09/01 A2986 RMK A01 T00870009  RH  058%=      5-min Rain = 0
KCO1 100716Z 11008KT 09/01 A2986 RMK A01 T00870009  RH  058%=      5-min Rain = 0
KCO1 100717Z 11010KT 09/01 A2986 RMK A01 T00860009  RH  058%=      5-min Rain = 0
KCO1 100718Z 11009KT 09/01 A2985 RMK A01 T00860009  RH  058%=      5-min Rain = 0
KCO1 100719Z 12010KT 09/01 A2985 RMK A01 T00860009  RH  058%=      5-min Rain = 0
KCO1 100720Z 12010KT 09/01 A2985 RMK A01 T00860010  RH  059%=      5-min Rain = 0
KCO1 100721Z 11010KT 09/01 A2985 RMK A01 T00870011  RH  059%=      5-min Rain = 0
KCO1 100722Z 12010KT 09/01 A2985 RMK A01 T00880012  RH  059%=      5-min Rain = 0
KCO1 100723Z 12009KT 09/01 A2985 RMK A01 T00900012  RH  058%=      5-min Rain = 0
KCO1 100724Z 12009KT 09/01 A2985 RMK A01 T00910012  RH  058%=      5-min Rain = 0
KCO1 100725Z 11010KT 09/01 A2985 RMK A01 T00910012  RH  058%=      5-min Rain = 0
KCO1 100726Z 11010KT 09/01 A2985 RMK A01 T00920012  RH  058%=      5-min Rain = 0
KCO1 100727Z 11010KT 09/01 A2985 RMK A01 T00920013  RH  057%=      5-min Rain = 0
KCO1 100728Z 11009KT 09/01 A2985 RMK A01 T00920012  RH  057%=      5-min Rain = 0
KCO1 100729Z 11009KT 09/01 A2985 RMK A01 T00920013  RH  057%=      5-min Rain = 0
KCO1 100730Z 11009KT 09/01 A2985 RMK A01 T00920013  RH  057%=      5-min Rain = 0
KCO1 100731Z 11009KT 09/01 A2985 RMK A01 T00920013  RH  058%=      5-min Rain = 0
KCO1 100732Z 11009KT 09/01 A2985 RMK A01 T00910012  RH  058%=      5-min Rain = 0
KCO1 100733Z 11009KT 09/01 A2985 RMK A01 T00910012  RH  058%=      5-min Rain = 0
KCO1 100734Z 11009KT 09/01 A2985 RMK A01 T00900012  RH  058%=      5-min Rain = 0
KCO1 100735Z 11009KT 09/01 A2985 RMK A01 T00910013  RH  058%=      5-min Rain = 0
KCO1 100736Z 11009KT 09/01 A2985 RMK A01 T00900012  RH  058%=      5-min Rain = 0
KCO1 100737Z 11009KT 09/01 A2985 RMK A01 T00890012  RH  058%=      5-min Rain = 0
KCO1 100738Z 11008KT 09/01 A2985 RMK A01 T00900013  RH  058%=      5-min Rain = 0
KCO1 100739Z 11008KT 09/01 A2985 RMK A01 T00900013  RH  058%=      5-min Rain = 0
KCO1 100740Z 11008KT 09/01 A2985 RMK A01 T00900013  RH  058%=      5-min Rain = 0
KCO1 100741Z 11008KT 09/01 A2985 RMK A01 T00900013  RH  059%=      5-min Rain = 0
KCO1 100742Z 11009KT 09/01 A2985 RMK A01 T00900013  RH  059%=      5-min Rain = 0
KCO1 100743Z 11009KT 09/01 A2985 RMK A01 T00900013  RH  059%=      5-min Rain = 0
KCO1 100744Z 11009KT 09/01 A2985 RMK A01 T00900013  RH  059%=      5-min Rain = 0
KCO1 100745Z 11009KT 09/01 A2985 RMK A01 T00890013  RH  059%=      5-min Rain = 0
KCO1 100746Z 11009KT 09/01 A2985 RMK A01 T00890013  RH  059%=      5-min Rain = 0
KCO1 100747Z 11009KT 09/01 A2985 RMK A01 T00890014  RH  059%=      5-min Rain = 0
KCO1 100748Z 10009KT 09/01 A2984 RMK A01 T00890014  RH  059%=      5-min Rain = 0
KCO1 100749Z 11009KT 09/01 A2984 RMK A01 T00900014  RH  059%=      5-min Rain = 0
KCO1 100750Z 11008KT 09/01 A2984 RMK A01 T00900014  RH  059%=      5-min Rain = 0
KCO1 100751Z 11008KT 09/01 A2984 RMK A01 T00900014  RH  059%=      5-min Rain = 0
KCO1 100752Z 11008KT 09/02 A2984 RMK A01 T00900015  RH  059%=      5-min Rain = 0
KCO1 100753Z 11008KT 09/02 A2984 RMK A01 T00900015  RH  059%=      5-min Rain = 0
KCO1 100754Z 11008KT 09/02 A2984 RMK A01 T00900015  RH  059%=      5-min Rain = 0
KCO1 100755Z 11007KT 09/02 A2984 RMK A01 T00900015  RH  060%=      5-min Rain = 0
KCO1 100756Z 11008KT 09/02 A2984 RMK A01 T00900015  RH  060%=      5-min Rain = 0
KCO1 100757Z 11008KT 09/02 A2984 RMK A01 T00900015  RH  060%=      5-min Rain = 0
KCO1 100758Z 11008KT 09/02 A2984 RMK A01 T00890015  RH  060%=      5-min Rain = 0
KCO1 100759Z 11008KT 09/02 A2984 RMK A01 T00890015  RH  060%=      5-min Rain = 0
KCO1 100800Z 11008KT 09/02 A2984 RMK A01 T00890016  RH  060%=      5-min Rain = 0
KCO1 100801Z 11008KT 09/02 A2984 RMK A01 T00890015  RH  060%=      5-min Rain = 0
KCO1 100802Z 11008KT 09/02 A2985 RMK A01 T00880015  RH  060%=      5-min Rain = 0
KCO1 100803Z 11007KT 09/02 A2984 RMK A01 T00880015  RH  060%=      5-min Rain = 0
KCO1 100804Z 11006KT 09/02 A2984 RMK A01 T00880015  RH  060%=      5-min Rain = 0
KCO1 100805Z 11006KT 09/02 A2984 RMK A01 T00870015  RH  061%=      5-min Rain = 0
KCO1 100806Z 11006KT 09/02 A2985 RMK A01 T00860015  RH  061%=      5-min Rain = 0
KCO1 100807Z 12007KT 09/01 A2985 RMK A01 T00850014  RH  061%=      5-min Rain = 0
KCO1 100808Z 12007KT 08/01 A2985 RMK A01 T00840014  RH  061%=      5-min Rain = 0
KCO1 100809Z 12007KT 08/01 A2985 RMK A01 T00830014  RH  062%=      5-min Rain = 0
KCO1 100810Z 11007KT 08/01 A2985 RMK A01 T00830014  RH  062%=      5-min Rain = 0
KCO1 100811Z 12007KT 08/02 A2985 RMK A01 T00820015  RH  062%=      5-min Rain = 0
KCO1 100812Z 12008KT 08/02 A2985 RMK A01 T00820015  RH  062%=      5-min Rain = 0
KCO1 100813Z 11008KT 08/02 A2985 RMK A01 T00820015  RH  063%=      5-min Rain = 0
KCO1 100814Z 11009KT 08/02 A2985 RMK A01 T00820015  RH  063%=      5-min Rain = 0
KCO1 100815Z 11009KT 08/02 A2984 RMK A01 T00820015  RH  063%=      5-min Rain = 0
KCO1 100816Z 11009KT 08/02 A2984 RMK A01 T00820015  RH  063%=      5-min Rain = 0
KCO1 100817Z 11009KT 08/02 A2984 RMK A01 T00820015  RH  063%=      5-min Rain = 0
KCO1 100818Z 11010KT 08/02 A2984 RMK A01 T00810015  RH  063%=      5-min Rain = 0
KCO1 100819Z 11009KT 08/02 A2984 RMK A01 T00800015  RH  063%=      5-min Rain = 0
KCO1 100820Z 11009KT 08/02 A2984 RMK A01 T00800015  RH  063%=      5-min Rain = 0
KCO1 100821Z 12009KT 08/02 A2984 RMK A01 T00790015  RH  064%=      5-min Rain = 0
KCO1 100822Z 11009KT 08/02 A2984 RMK A01 T00790015  RH  064%=      5-min Rain = 0
KCO1 100823Z 12008KT 08/02 A2984 RMK A01 T00790015  RH  064%=      5-min Rain = 0
KCO1 100824Z 12008KT 08/02 A2984 RMK A01 T00790015  RH  064%=      5-min Rain = 0
KCO1 100825Z 12008KT 08/02 A2984 RMK A01 T00790015  RH  064%=      5-min Rain = 0
KCO1 100826Z 12008KT 08/02 A2984 RMK A01 T00800015  RH  064%=      5-min Rain = 0
KCO1 100827Z 12008KT 08/02 A2984 RMK A01 T00790015  RH  064%=      5-min Rain = 0
KCO1 100828Z 12008KT 08/02 A2984 RMK A01 T00790015  RH  064%=      5-min Rain = 0
KCO1 100829Z 12008KT 08/02 A2984 RMK A01 T00790015  RH  064%=      5-min Rain = 0
KCO1 100830Z 12008KT 08/02 A2984 RMK A01 T00780015  RH  064%=      5-min Rain = 0
KCO1 100831Z 12008KT 08/02 A2984 RMK A01 T00790015  RH  064%=      5-min Rain = 0
KCO1 100832Z 12008KT 08/02 A2984 RMK A01 T00780015  RH  064%=      5-min Rain = 0
KCO1 100833Z 12009KT 08/02 A2984 RMK A01 T00770015  RH  064%=      5-min Rain = 0
KCO1 100834Z 12008KT 08/02 A2984 RMK A01 T00770015  RH  065%=      5-min Rain = 0
KCO1 100835Z 12008KT 08/02 A2984 RMK A01 T00770015  RH  065%=      5-min Rain = 0
KCO1 100836Z 12007KT 08/02 A2984 RMK A01 T00770015  RH  065%=      5-min Rain = 0
KCO1 100837Z 12006KT 08/02 A2984 RMK A01 T00770015  RH  065%=      5-min Rain = 0
KCO1 100838Z 12005KT 08/02 A2984 RMK A01 T00770015  RH  065%=      5-min Rain = 0
KCO1 100839Z 11003KT 08/02 A2984 RMK A01 T00770015  RH  065%=      5-min Rain = 0
KCO1 100840Z 10002KT 08/02 A2984 RMK A01 T00770015  RH  065%=      5-min Rain = 0
KCO1 100841Z 10002KT 08/01 A2984 RMK A01 T00760014  RH  065%=      5-min Rain = 0
KCO1 100842Z 09001KT 08/02 A2984 RMK A01 T00760015  RH  065%=      5-min Rain = 0
KCO1 100843Z 09002KT 08/02 A2984 RMK A01 T00760015  RH  065%=      5-min Rain = 0
KCO1 100844Z 11002KT 08/01 A2984 RMK A01 T00750014  RH  065%=      5-min Rain = 0
KCO1 100845Z 12002KT 08/01 A2984 RMK A01 T00750014  RH  065%=      5-min Rain = 0
KCO1 100846Z 13002KT 07/01 A2984 RMK A01 T00740014  RH  065%=      5-min Rain = 0
KCO1 100847Z 13002KT 07/01 A2984 RMK A01 T00740014  RH  066%=      5-min Rain = 0
KCO1 100848Z 13002KT 07/01 A2984 RMK A01 T00740014  RH  066%=      5-min Rain = 0
KCO1 100849Z 12002KT 07/01 A2984 RMK A01 T00730014  RH  066%=      5-min Rain = 0
KCO1 100850Z 12001KT 07/01 A2984 RMK A01 T00730013  RH  066%=      5-min Rain = 0
KCO1 100851Z 11001KT 07/01 A2984 RMK A01 T00730013  RH  066%=      5-min Rain = 0
KCO1 100852Z 10001KT 07/01 A2984 RMK A01 T00730014  RH  066%=      5-min Rain = 0
KCO1 100853Z 10001KT 07/01 A2984 RMK A01 T00730014  RH  066%=      5-min Rain = 0
KCO1 100854Z 12001KT 07/01 A2984 RMK A01 T00730014  RH  066%=      5-min Rain = 0
KCO1 100855Z 11001KT 07/01 A2984 RMK A01 T00730014  RH  066%=      5-min Rain = 0
KCO1 100856Z 11001KT 07/01 A2984 RMK A01 T00740014  RH  066%=      5-min Rain = 0
KCO1 100857Z 11002KT 07/01 A2984 RMK A01 T00740014  RH  066%=      5-min Rain = 0
KCO1 100858Z 12003KT 07/01 A2984 RMK A01 T00730014  RH  066%=      5-min Rain = 0
KCO1 100859Z 11003KT 07/01 A2984 RMK A01 T00740014  RH  066%=      5-min Rain = 0
KCO1 100900Z 12003KT 07/01 A2984 RMK A01 T00740014  RH  066%=      5-min Rain = 0
KCO1 100901Z 12004KT 07/01 A2984 RMK A01 T00740014  RH  066%=      5-min Rain = 0
KCO1 100902Z 12004KT 07/01 A2984 RMK A01 T00740014  RH  065%=      5-min Rain = 0
KCO1 100903Z 12005KT 07/01 A2984 RMK A01 T00740013  RH  065%=      5-min Rain = 0
KCO1 100904Z 12005KT 07/01 A2984 RMK A01 T00730012  RH  065%=      5-min Rain = 0
KCO1 100905Z 11005KT 07/01 A2984 RMK A01 T00720012  RH  066%=      5-min Rain = 0
KCO1 100906Z 11006KT 07/01 A2984 RMK A01 T00710012  RH  066%=      5-min Rain = 0
KCO1 100907Z 11005KT 07/01 A2983 RMK A01 T00700013  RH  067%=      5-min Rain = 0
KCO1 100908Z 11005KT 07/01 A2984 RMK A01 T00700014  RH  067%=      5-min Rain = 0
KCO1 100909Z 10004KT 07/01 A2983 RMK A01 T00710014  RH  067%=      5-min Rain = 0
KCO1 100910Z 11005KT 07/01 A2984 RMK A01 T00700014  RH  067%=      5-min Rain = 0
KCO1 100911Z 10005KT 07/01 A2983 RMK A01 T00700014  RH  067%=      5-min Rain = 0
KCO1 100912Z 11004KT 07/02 A2983 RMK A01 T00710015  RH  067%=      5-min Rain = 0
KCO1 100913Z 11004KT 07/02 A2983 RMK A01 T00710015  RH  067%=      5-min Rain = 0
KCO1 100914Z 11003KT 07/02 A2983 RMK A01 T00720016  RH  067%=      5-min Rain = 0
KCO1 100915Z 10004KT 07/02 A2983 RMK A01 T00730017  RH  067%=      5-min Rain = 0
KCO1 100916Z 10004KT 07/02 A2983 RMK A01 T00740017  RH  067%=      5-min Rain = 0
KCO1 100917Z 10004KT 08/02 A2983 RMK A01 T00750017  RH  067%=      5-min Rain = 0
KCO1 100918Z 10005KT 08/02 A2983 RMK A01 T00760017  RH  066%=      5-min Rain = 0
KCO1 100919Z 10005KT 08/02 A2983 RMK A01 T00760017  RH  066%=      5-min Rain = 0
KCO1 100920Z 10005KT 08/02 A2983 RMK A01 T00750016  RH  066%=      5-min Rain = 0
KCO1 100921Z 10005KT 08/02 A2983 RMK A01 T00750017  RH  066%=      5-min Rain = 0
KCO1 100922Z 10005KT 08/02 A2983 RMK A01 T00750017  RH  067%=      5-min Rain = 0
KCO1 100923Z 10005KT 08/02 A2983 RMK A01 T00750017  RH  067%=      5-min Rain = 0
KCO1 100924Z 10005KT 07/02 A2983 RMK A01 T00740016  RH  067%=      5-min Rain = 0
KCO1 100925Z 09005KT 07/02 A2983 RMK A01 T00740016  RH  067%=      5-min Rain = 0
KCO1 100926Z 09004KT 07/02 A2983 RMK A01 T00730016  RH  067%=      5-min Rain = 0
KCO1 100927Z 09004KT 07/02 A2983 RMK A01 T00730016  RH  067%=      5-min Rain = 0
KCO1 100928Z 09003KT 07/02 A2983 RMK A01 T00720016  RH  067%=      5-min Rain = 0
KCO1 100929Z 09003KT 07/02 A2983 RMK A01 T00720016  RH  068%=      5-min Rain = 0
KCO1 100930Z 09003KT 07/02 A2983 RMK A01 T00720017  RH  068%=      5-min Rain = 0
KCO1 100931Z 08003KT 07/02 A2983 RMK A01 T00720016  RH  068%=      5-min Rain = 0
KCO1 100932Z 09003KT 07/02 A2983 RMK A01 T00710016  RH  068%=      5-min Rain = 0
KCO1 100933Z 07003KT 07/02 A2983 RMK A01 T00710016  RH  068%=      5-min Rain = 0
KCO1 100934Z 06002KT 07/02 A2983 RMK A01 T00700016  RH  068%=      5-min Rain = 0
KCO1 100935Z 03002KT 07/02 A2983 RMK A01 T00700015  RH  068%=      5-min Rain = 0
KCO1 100936Z 01002KT 07/02 A2983 RMK A01 T00680015  RH  069%=      5-min Rain = 0
KCO1 100937Z 01002KT 07/02 A2983 RMK A01 T00680015  RH  069%=      5-min Rain = 0
KCO1 100938Z 04001KT 07/02 A2983 RMK A01 T00680015  RH  069%=      5-min Rain = 0
KCO1 100939Z 07002KT 07/02 A2983 RMK A01 T00670015  RH  069%=      5-min Rain = 0
KCO1 100940Z 08002KT 07/02 A2983 RMK A01 T00680016  RH  069%=      5-min Rain = 0
KCO1 100941Z 11004KT 07/02 A2983 RMK A01 T00690016  RH  069%=      5-min Rain = 0
KCO1 100942Z 11004KT 07/02 A2983 RMK A01 T00710017  RH  069%=      5-min Rain = 0
KCO1 100943Z 12004KT 07/02 A2982 RMK A01 T00730018  RH  068%=      5-min Rain = 0
KCO1 100944Z 12006KT 07/02 A2982 RMK A01 T00740017  RH  067%=      5-min Rain = 0
KCO1 100945Z 12006KT 08/02 A2982 RMK A01 T00750017  RH  066%=      5-min Rain = 0
KCO1 100946Z 12006KT 08/02 A2982 RMK A01 T00760017  RH  066%=      5-min Rain = 0
KCO1 100947Z 12006KT 08/02 A2982 RMK A01 T00760016  RH  066%=      5-min Rain = 0
KCO1 100948Z 12006KT 08/02 A2982 RMK A01 T00760016  RH  066%=      5-min Rain = 0
KCO1 100949Z 12006KT 08/02 A2982 RMK A01 T00760016  RH  066%=      5-min Rain = 0
KCO1 100950Z 12006KT 08/02 A2982 RMK A01 T00760015  RH  066%=      5-min Rain = 0
KCO1 100951Z 12007KT 08/02 A2982 RMK A01 T00750015  RH  066%=      5-min Rain = 0
KCO1 100952Z 12006KT 07/02 A2982 RMK A01 T00740015  RH  066%=      5-min Rain = 0
KCO1 100953Z 12006KT 07/01 A2982 RMK A01 T00730014  RH  066%=      5-min Rain = 0
KCO1 100954Z 12006KT 07/01 A2982 RMK A01 T00730014  RH  066%=      5-min Rain = 0
KCO1 100955Z 12006KT 07/01 A2982 RMK A01 T00720014  RH  066%=      5-min Rain = 0
KCO1 100956Z 12006KT 07/01 A2982 RMK A01 T00710013  RH  067%=      5-min Rain = 0
KCO1 100957Z 12007KT 07/01 A2982 RMK A01 T00710014  RH  067%=      5-min Rain = 0
KCO1 100958Z 12007KT 07/01 A2982 RMK A01 T00710014  RH  067%=      5-min Rain = 0
KCO1 100959Z 12007KT 07/01 A2982 RMK A01 T00710014  RH  067%=      5-min Rain = 0
KCO1 101000Z 12007KT 07/01 A2982 RMK A01 T00710014  RH  067%=      5-min Rain = 0
KCO1 101001Z 13007KT 07/01 A2982 RMK A01 T00700013  RH  067%=      5-min Rain = 0
KCO1 101002Z 13007KT 07/01 A2982 RMK A01 T00700013  RH  067%=      5-min Rain = 0
KCO1 101003Z 13006KT 07/01 A2982 RMK A01 T00690013  RH  067%=      5-min Rain = 0
KCO1 101004Z 13007KT 07/01 A2982 RMK A01 T00690013  RH  067%=      5-min Rain = 0
KCO1 101005Z 13007KT 07/01 A2982 RMK A01 T00690014  RH  068%=      5-min Rain = 0
KCO1 101006Z 13007KT 07/01 A2982 RMK A01 T00690014  RH  068%=      5-min Rain = 0
KCO1 101007Z 13007KT 07/01 A2982 RMK A01 T00690013  RH  068%=      5-min Rain = 0
KCO1 101008Z 13008KT 07/01 A2982 RMK A01 T00690013  RH  067%=      5-min Rain = 0
KCO1 101009Z 12008KT 07/01 A2982 RMK A01 T00690013  RH  067%=      5-min Rain = 0
KCO1 101010Z 12008KT 07/01 A2982 RMK A01 T00700014  RH  067%=      5-min Rain = 0
KCO1 101011Z 12008KT 07/01 A2982 RMK A01 T00700013  RH  067%=      5-min Rain = 0
KCO1 101012Z 12009KT 07/01 A2982 RMK A01 T00700013  RH  067%=      5-min Rain = 0
KCO1 101013Z 12009KT 07/01 A2982 RMK A01 T00700013  RH  067%=      5-min Rain = 0
KCO1 101014Z 12010KT 07/01 A2982 RMK A01 T00710014  RH  067%=      5-min Rain = 0
KCO1 101015Z 12010KT 07/01 A2982 RMK A01 T00720014  RH  067%=      5-min Rain = 0
KCO1 101016Z 12010KT 07/01 A2981 RMK A01 T00730014  RH  066%=      5-min Rain = 0
KCO1 101017Z 12010KT 07/02 A2981 RMK A01 T00730015  RH  066%=      5-min Rain = 0
KCO1 101018Z 13009KT 08/02 A2981 RMK A01 T00750016  RH  066%=      5-min Rain = 0
KCO1 101019Z 12009KT 08/02 A2981 RMK A01 T00760016  RH  066%=      5-min Rain = 0
KCO1 101020Z 12008KT 08/02 A2981 RMK A01 T00770016  RH  065%=      5-min Rain = 0
KCO1 101021Z 12008KT 08/02 A2981 RMK A01 T00780016  RH  065%=      5-min Rain = 0
KCO1 101022Z 12008KT 08/02 A2981 RMK A01 T00780016  RH  065%=      5-min Rain = 0
KCO1 101023Z 13008KT 08/02 A2981 RMK A01 T00780016  RH  065%=      5-min Rain = 0
KCO1 101024Z 13008KT 08/02 A2981 RMK A01 T00780015  RH  065%=      5-min Rain = 0
KCO1 101025Z 13008KT 08/01 A2981 RMK A01 T00770014  RH  065%=      5-min Rain = 0
KCO1 101026Z 13008KT 08/01 A2981 RMK A01 T00760014  RH  065%=      5-min Rain = 0
KCO1 101027Z 13008KT 08/01 A2981 RMK A01 T00750014  RH  065%=      5-min Rain = 0
KCO1 101028Z 13008KT 08/01 A2981 RMK A01 T00750013  RH  065%=      5-min Rain = 0
KCO1 101029Z 12007KT 07/01 A2981 RMK A01 T00740013  RH  065%=      5-min Rain = 0
KCO1 101030Z 12006KT 07/01 A2981 RMK A01 T00730013  RH  066%=      5-min Rain = 0
KCO1 101031Z 13006KT 07/01 A2981 RMK A01 T00730013  RH  066%=      5-min Rain = 0
KCO1 101032Z 13005KT 07/01 A2981 RMK A01 T00730014  RH  066%=      5-min Rain = 0
KCO1 101033Z 14005KT 07/01 A2981 RMK A01 T00730014  RH  066%=      5-min Rain = 0
KCO1 101034Z 14004KT 07/01 A2981 RMK A01 T00730014  RH  066%=      5-min Rain = 0
KCO1 101035Z 14005KT 07/01 A2981 RMK A01 T00730014  RH  066%=      5-min Rain = 0
KCO1 101036Z 13005KT 07/01 A2981 RMK A01 T00730014  RH  066%=      5-min Rain = 0
KCO1 101037Z 13006KT 07/01 A2981 RMK A01 T00720014  RH  066%=      5-min Rain = 0
KCO1 101038Z 13006KT 07/01 A2981 RMK A01 T00720014  RH  066%=      5-min Rain = 0
KCO1 101039Z 13006KT 07/01 A2981 RMK A01 T00720014  RH  067%=      5-min Rain = 0
KCO1 101040Z 13006KT 07/01 A2981 RMK A01 T00710014  RH  067%=      5-min Rain = 0
KCO1 101041Z 14007KT 07/01 A2981 RMK A01 T00710014  RH  067%=      5-min Rain = 0
KCO1 101042Z 13008KT 07/02 A298 RMK A01 T00710015  RH  067%=      5-min Rain = 0
KCO1 101043Z 13009KT 07/02 A298 RMK A01 T00720015  RH  067%=      5-min Rain = 0
KCO1 101044Z 14008KT 07/02 A298 RMK A01 T00720015  RH  067%=      5-min Rain = 0
KCO1 101045Z 13008KT 07/02 A298 RMK A01 T00730015  RH  067%=      5-min Rain = 0
KCO1 101046Z 13009KT 07/02 A298 RMK A01 T00740015  RH  066%=      5-min Rain = 0
KCO1 101047Z 14009KT 08/02 A298 RMK A01 T00750015  RH  066%=      5-min Rain = 0
KCO1 101048Z 13009KT 08/02 A298 RMK A01 T00760015  RH  065%=      5-min Rain = 0
KCO1 101049Z 14009KT 08/01 A298 RMK A01 T00770014  RH  065%=      5-min Rain = 0
KCO1 101050Z 13008KT 08/01 A298 RMK A01 T00770014  RH  064%=      5-min Rain = 0
KCO1 101051Z 13009KT 08/01 A298 RMK A01 T00770013  RH  064%=      5-min Rain = 0
KCO1 101052Z 14009KT 08/01 A298 RMK A01 T00780013  RH  064%=      5-min Rain = 0
KCO1 101053Z 13010KT 08/01 A298 RMK A01 T00780013  RH  064%=      5-min Rain = 0
KCO1 101054Z 13009KT 08/01 A298 RMK A01 T00780013  RH  063%=      5-min Rain = 0
KCO1 101055Z 13009KT 08/01 A298 RMK A01 T00780013  RH  063%=      5-min Rain = 0
KCO1 101056Z 13007KT 08/01 A298 RMK A01 T00780012  RH  063%=      5-min Rain = 0
KCO1 101057Z 13006KT 08/01 A298 RMK A01 T00790013  RH  063%=      5-min Rain = 0
KCO1 101058Z 13006KT 08/01 A298 RMK A01 T00780013  RH  063%=      5-min Rain = 0
KCO1 101059Z 13005KT 08/01 A298 RMK A01 T00790013  RH  063%=      5-min Rain = 0
KCO1 101100Z 13004KT 08/01 A298 RMK A01 T00790013  RH  063%=      5-min Rain = 0
KCO1 101101Z 12004KT 08/01 A298 RMK A01 T00790013  RH  063%=      5-min Rain = 0
KCO1 101102Z 12003KT 08/01 A298 RMK A01 T00780013  RH  063%=      5-min Rain = 0
KCO1 101103Z 11003KT 08/01 A298 RMK A01 T00780013  RH  063%=      5-min Rain = 0
KCO1 101104Z 12003KT 08/01 A2979 RMK A01 T00770012  RH  063%=      5-min Rain = 0
KCO1 101105Z 11003KT 08/01 A2979 RMK A01 T00770013  RH  064%=      5-min Rain = 0
KCO1 101106Z 12002KT 08/01 A2979 RMK A01 T00770013  RH  064%=      5-min Rain = 0
KCO1 101107Z 11002KT 08/01 A2979 RMK A01 T00770013  RH  064%=      5-min Rain = 0
KCO1 101108Z 12002KT 08/01 A2979 RMK A01 T00770013  RH  064%=      5-min Rain = 0
KCO1 101109Z 12003KT 08/01 A2979 RMK A01 T00770013  RH  064%=      5-min Rain = 0
KCO1 101110Z 12004KT 08/01 A2979 RMK A01 T00770013  RH  064%=      5-min Rain = 0
KCO1 101111Z 12004KT 08/01 A2979 RMK A01 T00760013  RH  064%=      5-min Rain = 0
KCO1 101112Z 13005KT 08/01 A2979 RMK A01 T00760013  RH  064%=      5-min Rain = 0
KCO1 101113Z 13005KT 08/01 A2979 RMK A01 T00760014  RH  065%=      5-min Rain = 0
KCO1 101114Z 12005KT 08/01 A2979 RMK A01 T00760014  RH  065%=      5-min Rain = 0
KCO1 101115Z 13007KT 08/02 A2979 RMK A01 T00760015  RH  065%=      5-min Rain = 0
KCO1 101116Z 14006KT 08/02 A2979 RMK A01 T00760015  RH  065%=      5-min Rain = 0
KCO1 101117Z 13006KT 08/02 A2979 RMK A01 T00770016  RH  065%=      5-min Rain = 0
KCO1 101118Z 13007KT 08/02 A2979 RMK A01 T00780016  RH  065%=      5-min Rain = 0
KCO1 101119Z 13006KT 08/02 A2979 RMK A01 T00780016  RH  065%=      5-min Rain = 0
KCO1 101120Z 14007KT 08/02 A2979 RMK A01 T00780016  RH  065%=      5-min Rain = 0
KCO1 101121Z 14007KT 08/02 A2979 RMK A01 T00790017  RH  065%=      5-min Rain = 0
KCO1 101122Z 14008KT 08/02 A2979 RMK A01 T00790016  RH  065%=      5-min Rain = 0
KCO1 101123Z 14008KT 08/02 A2979 RMK A01 T00790017  RH  065%=      5-min Rain = 0
KCO1 101124Z 14009KT 08/02 A2979 RMK A01 T00800017  RH  065%=      5-min Rain = 0
KCO1 101125Z 14009KT 08/02 A2979 RMK A01 T00810018  RH  065%=      5-min Rain = 0
KCO1 101126Z 13009KT 08/02 A2978 RMK A01 T00820018  RH  064%=      5-min Rain = 0
KCO1 101127Z 13009KT 08/02 A2979 RMK A01 T00830019  RH  064%=      5-min Rain = 0
KCO1 101128Z 13010KT 08/02 A2978 RMK A01 T00840020  RH  064%=      5-min Rain = 0
KCO1 101129Z 13011KT 09/02 A2978 RMK A01 T00850020  RH  064%=      5-min Rain = 0
KCO1 101130Z 13011KT 09/02 A2978 RMK A01 T00870021  RH  063%=      5-min Rain = 0
KCO1 101131Z 13011KT 09/02 A2978 RMK A01 T00880021  RH  063%=      5-min Rain = 0
KCO1 101132Z 12010KT 09/02 A2978 RMK A01 T00890021  RH  063%=      5-min Rain = 0
KCO1 101133Z 13012KT 09/02 A2978 RMK A01 T00900022  RH  062%=      5-min Rain = 0
KCO1 101134Z 13012KT 09/02 A2978 RMK A01 T00910022  RH  062%=      5-min Rain = 0
KCO1 101135Z 12013KT 09/02 A2978 RMK A01 T00920022  RH  062%=      5-min Rain = 0
KCO1 101136Z 13012KT 09/02 A2978 RMK A01 T00920022  RH  061%=      5-min Rain = 0
KCO1 101137Z 13013KT 09/02 A2978 RMK A01 T00930022  RH  061%=      5-min Rain = 0
KCO1 101138Z 13013KT 09/02 A2978 RMK A01 T00930022  RH  061%=      5-min Rain = 0
KCO1 101139Z 13013KT 09/02 A2978 RMK A01 T00930022  RH  061%=      5-min Rain = 0
KCO1 101140Z 13013KT 09/02 A2978 RMK A01 T00940022  RH  061%=      5-min Rain = 0
KCO1 101141Z 13012KT 09/02 A2978 RMK A01 T00940022  RH  061%=      5-min Rain = 0
KCO1 101142Z 13012KT 09/02 A2978 RMK A01 T00940022  RH  061%=      5-min Rain = 0
KCO1 101143Z 13011KT 09/02 A2978 RMK A01 T00940022  RH  061%=      5-min Rain = 0
KCO1 101144Z 13011KT 09/02 A2978 RMK A01 T00940022  RH  061%=      5-min Rain = 0
KCO1 101145Z 13010KT 09/02 A2978 RMK A01 T00940022  RH  061%=      5-min Rain = 0
KCO1 101146Z 13011KT 09/02 A2978 RMK A01 T00940022  RH  061%=      5-min Rain = 0
KCO1 101147Z 12011KT 09/02 A2978 RMK A01 T00940022  RH  061%=      5-min Rain = 0
KCO1 101148Z 13011KT 09/02 A2978 RMK A01 T00940022  RH  061%=      5-min Rain = 0
KCO1 101149Z 13009KT 09/02 A2978 RMK A01 T00940022  RH  061%=      5-min Rain = 0
KCO1 101150Z 13008KT 09/02 A2978 RMK A01 T00940022  RH  061%=      5-min Rain = 0
KCO1 101151Z 13010KT 09/02 A2978 RMK A01 T00930022  RH  061%=      5-min Rain = 0
KCO1 101152Z 13008KT 09/02 A2978 RMK A01 T00930022  RH  061%=      5-min Rain = 0
KCO1 101153Z 13008KT 09/02 A2978 RMK A01 T00930022  RH  061%=      5-min Rain = 0
KCO1 101154Z 13010KT 09/02 A2978 RMK A01 T00930022  RH  061%=      5-min Rain = 0
KCO1 101155Z 13008KT 09/02 A2978 RMK A01 T00930022  RH  061%=      5-min Rain = 0
KCO1 101156Z 13008KT 09/02 A2978 RMK A01 T00930022  RH  061%=      5-min Rain = 0
KCO1 101157Z 13008KT 09/02 A2978 RMK A01 T00940022  RH  061%=      5-min Rain = 0
KCO1 101158Z 13007KT 09/02 A2979 RMK A01 T00940022  RH  061%=      5-min Rain = 0
KCO1 101159Z 13005KT 09/02 A2979 RMK A01 T00940022  RH  061%=      5-min Rain = 0
KCO1 101200Z 12005KT 09/02 A2979 RMK A01 T00940022  RH  061%=      5-min Rain = 0
KCO1 101201Z 12005KT 09/02 A2979 RMK A01 T00940022  RH  061%=      5-min Rain = 0
KCO1 101202Z 13006KT 09/02 A2979 RMK A01 T00940022  RH  061%=      5-min Rain = 0
KCO1 101203Z 12007KT 09/02 A2979 RMK A01 T00940022  RH  061%=      5-min Rain = 0
KCO1 101204Z 12005KT 09/02 A2979 RMK A01 T00940022  RH  061%=      5-min Rain = 0
KCO1 101205Z 12006KT 09/02 A2979 RMK A01 T00940022  RH  061%=      5-min Rain = 0
KCO1 101206Z 12004KT 10/02 A2979 RMK A01 T00950022  RH  061%=      5-min Rain = 0
KCO1 101207Z 13004KT 10/02 A2979 RMK A01 T00950022  RH  060%=      5-min Rain = 0
KCO1 101208Z 12003KT 10/02 A2979 RMK A01 T00950022  RH  060%=      5-min Rain = 0
KCO1 101209Z 11004KT 10/02 A2979 RMK A01 T00950022  RH  060%=      5-min Rain = 0
KCO1 101210Z 11004KT 10/02 A2979 RMK A01 T00950022  RH  060%=      5-min Rain = 0
KCO1 101211Z 11004KT 10/02 A2979 RMK A01 T00950022  RH  060%=      5-min Rain = 0
KCO1 101212Z 11003KT 09/02 A2979 RMK A01 T00940022  RH  061%=      5-min Rain = 0
KCO1 101213Z 10002KT 09/02 A2979 RMK A01 T00940022  RH  061%=      5-min Rain = 0
KCO1 101214Z 09001KT 09/02 A298 RMK A01 T00940022  RH  061%=      5-min Rain = 0
KCO1 101215Z 03000KT 09/02 A298 RMK A01 T00940022  RH  061%=      5-min Rain = 0
KCO1 101216Z 02001KT 09/02 A2979 RMK A01 T00930022  RH  061%=      5-min Rain = 0
KCO1 101217Z 08002KT 09/02 A2979 RMK A01 T00940022  RH  061%=      5-min Rain = 0
KCO1 101218Z 07000KT 09/02 A298 RMK A01 T00930022  RH  061%=      5-min Rain = 0
KCO1 101219Z 00000KT 09/02 A298 RMK A01 T00930021  RH  061%=      5-min Rain = 0
KCO1 101220Z 00000KT 09/02 A298 RMK A01 T00940022  RH  061%=      5-min Rain = 0
KCO1 101221Z 01001KT 09/02 A298 RMK A01 T00940022  RH  061%=      5-min Rain = 0
KCO1 101222Z 34002KT 09/02 A298 RMK A01 T00940022  RH  061%=      5-min Rain = 0
KCO1 101223Z 32002KT 09/02 A298 RMK A01 T00930022  RH  061%=      5-min Rain = 0
KCO1 101224Z 33003KT 09/02 A298 RMK A01 T00920022  RH  061%=      5-min Rain = 0
KCO1 101225Z 34002KT 09/02 A298 RMK A01 T00910021  RH  062%=      5-min Rain = 0
KCO1 101226Z 34002KT 09/02 A298 RMK A01 T00900021  RH  062%=      5-min Rain = 0
KCO1 101227Z 35002KT 09/02 A298 RMK A01 T00890022  RH  063%=      5-min Rain = 0
KCO1 101228Z 35003KT 09/02 A298 RMK A01 T00880022  RH  063%=      5-min Rain = 0
KCO1 101229Z 34003KT 09/02 A298 RMK A01 T00870021  RH  063%=      5-min Rain = 0
KCO1 101230Z 34003KT 09/02 A2979 RMK A01 T00870021  RH  063%=      5-min Rain = 0
KCO1 101231Z 35003KT 09/02 A2979 RMK A01 T00850020  RH  063%=      5-min Rain = 0
KCO1 101232Z 35003KT 08/02 A2979 RMK A01 T00840019  RH  064%=      5-min Rain = 0
KCO1 101233Z 34004KT 08/02 A2979 RMK A01 T00830019  RH  064%=      5-min Rain = 0
KCO1 101234Z 33004KT 08/02 A2979 RMK A01 T00810019  RH  065%=      5-min Rain = 0
KCO1 101235Z 35004KT 08/02 A2979 RMK A01 T00800019  RH  065%=      5-min Rain = 0
KCO1 101236Z 36004KT 08/02 A2979 RMK A01 T00780018  RH  066%=      5-min Rain = 0
KCO1 101237Z 00003KT 08/02 A2979 RMK A01 T00770018  RH  066%=      5-min Rain = 0
KCO1 101238Z 36003KT 08/02 A2979 RMK A01 T00760017  RH  066%=      5-min Rain = 0
KCO1 101239Z 36003KT 08/02 A2979 RMK A01 T00750017  RH  067%=      5-min Rain = 0
KCO1 101240Z 01003KT 07/02 A2979 RMK A01 T00740017  RH  067%=      5-min Rain = 0
KCO1 101241Z 03002KT 07/02 A2979 RMK A01 T00740017  RH  067%=      5-min Rain = 0
KCO1 101242Z 04002KT 07/02 A2979 RMK A01 T00730017  RH  068%=      5-min Rain = 0
KCO1 101243Z 05002KT 07/02 A2979 RMK A01 T00730017  RH  068%=      5-min Rain = 0
KCO1 101244Z 05002KT 07/02 A2979 RMK A01 T00720018  RH  068%=      5-min Rain = 0
KCO1 101245Z 03002KT 07/02 A2979 RMK A01 T00720018  RH  068%=      5-min Rain = 0
KCO1 101246Z 01003KT 07/02 A2979 RMK A01 T00720018  RH  069%=      5-min Rain = 0
KCO1 101247Z 02003KT 07/02 A2979 RMK A01 T00710018  RH  069%=      5-min Rain = 0
KCO1 101248Z 04003KT 07/02 A2979 RMK A01 T00700018  RH  069%=      5-min Rain = 0
KCO1 101249Z 04003KT 07/02 A2979 RMK A01 T00690017  RH  069%=      5-min Rain = 0
KCO1 101250Z 04003KT 07/02 A2979 RMK A01 T00690018  RH  070%=      5-min Rain = 0
KCO1 101251Z 03003KT 07/02 A2979 RMK A01 T00680018  RH  070%=      5-min Rain = 0
KCO1 101252Z 03003KT 07/02 A2979 RMK A01 T00680018  RH  070%=      5-min Rain = 0
KCO1 101253Z 04003KT 07/02 A2979 RMK A01 T00680018  RH  070%=      5-min Rain = 0
KCO1 101254Z 04003KT 07/02 A2979 RMK A01 T00680018  RH  070%=      5-min Rain = 0
KCO1 101255Z 03003KT 07/02 A2979 RMK A01 T00680018  RH  071%=      5-min Rain = 0
KCO1 101256Z 03003KT 07/02 A2979 RMK A01 T00680019  RH  071%=      5-min Rain = 0
KCO1 101257Z 03003KT 07/02 A2979 RMK A01 T00680019  RH  071%=      5-min Rain = 0
KCO1 101258Z 03003KT 07/02 A2979 RMK A01 T00680019  RH  071%=      5-min Rain = 0
KCO1 101259Z 03003KT 07/02 A2979 RMK A01 T00670019  RH  071%=      5-min Rain = 0
KCO1 101300Z 04003KT 07/02 A2979 RMK A01 T00660018  RH  071%=      5-min Rain = 0
KCO1 101301Z 05003KT 07/02 A2979 RMK A01 T00660018  RH  072%=      5-min Rain = 0
KCO1 101302Z 06003KT 07/02 A2979 RMK A01 T00660019  RH  072%=      5-min Rain = 0
KCO1 101303Z 05003KT 07/02 A2979 RMK A01 T00660019  RH  072%=      5-min Rain = 0
KCO1 101304Z 05002KT 07/02 A2979 RMK A01 T00660019  RH  072%=      5-min Rain = 0
KCO1 101305Z 03002KT 07/02 A2979 RMK A01 T00660019  RH  072%=      5-min Rain = 0
KCO1 101306Z 01003KT 07/02 A2979 RMK A01 T00660019  RH  072%=      5-min Rain = 0
KCO1 101307Z 01003KT 07/02 A2979 RMK A01 T00660019  RH  072%=      5-min Rain = 0
KCO1 101308Z 01003KT 07/02 A2979 RMK A01 T00660019  RH  072%=      5-min Rain = 0
KCO1 101309Z 00003KT 07/02 A2979 RMK A01 T00660019  RH  072%=      5-min Rain = 0
KCO1 101310Z 00004KT 07/02 A2979 RMK A01 T00660019  RH  072%=      5-min Rain = 0
KCO1 101311Z 36003KT 07/02 A2979 RMK A01 T00660019  RH  072%=      5-min Rain = 0
KCO1 101312Z 35003KT 07/02 A2979 RMK A01 T00660018  RH  071%=      5-min Rain = 0
KCO1 101313Z 36004KT 07/02 A2979 RMK A01 T00660018  RH  071%=      5-min Rain = 0
KCO1 101314Z 00003KT 07/02 A2979 RMK A01 T00660018  RH  071%=      5-min Rain = 0
KCO1 101315Z 36004KT 07/02 A2979 RMK A01 T00660018  RH  071%=      5-min Rain = 0
KCO1 101316Z 35004KT 07/02 A2979 RMK A01 T00660018  RH  071%=      5-min Rain = 0
KCO1 101317Z 36004KT 07/02 A2979 RMK A01 T00660018  RH  072%=      5-min Rain = 0
KCO1 101318Z 01004KT 07/02 A2979 RMK A01 T00650017  RH  072%=      5-min Rain = 0
KCO1 101319Z 03003KT 07/02 A2979 RMK A01 T00650017  RH  072%=      5-min Rain = 0
KCO1 101320Z 04003KT 06/02 A2979 RMK A01 T00640017  RH  072%=      5-min Rain = 0
KCO1 101321Z 05003KT 06/02 A2979 RMK A01 T00640017  RH  072%=      5-min Rain = 0
KCO1 101322Z 06003KT 06/02 A2979 RMK A01 T00630017  RH  072%=      5-min Rain = 0
KCO1 101323Z 07003KT 06/02 A2979 RMK A01 T00630017  RH  073%=      5-min Rain = 0
KCO1 101324Z 08003KT 06/02 A2979 RMK A01 T00630017  RH  073%=      5-min Rain = 0
KCO1 101325Z 08003KT 06/02 A2979 RMK A01 T00620018  RH  073%=      5-min Rain = 0
KCO1 101326Z 09003KT 06/02 A2979 RMK A01 T00620017  RH  073%=      5-min Rain = 0
KCO1 101327Z 09003KT 06/02 A2979 RMK A01 T00620018  RH  073%=      5-min Rain = 0
KCO1 101328Z 09003KT 06/02 A2979 RMK A01 T00620018  RH  073%=      5-min Rain = 0
KCO1 101329Z 08002KT 06/02 A2979 RMK A01 T00620018  RH  073%=      5-min Rain = 0
KCO1 101330Z 08002KT 06/02 A2979 RMK A01 T00620018  RH  073%=      5-min Rain = 0
KCO1 101331Z 08002KT 06/02 A2979 RMK A01 T00620018  RH  073%=      5-min Rain = 0
KCO1 101332Z 08002KT 06/02 A2978 RMK A01 T00620018  RH  074%=      5-min Rain = 0
KCO1 101333Z 08002KT 06/02 A2978 RMK A01 T00620018  RH  074%=      5-min Rain = 0
KCO1 101334Z 08002KT 06/02 A2979 RMK A01 T00620018  RH  074%=      5-min Rain = 0
KCO1 101335Z 08001KT 06/02 A2979 RMK A01 T00620018  RH  074%=      5-min Rain = 0
KCO1 101336Z 07001KT 06/02 A2979 RMK A01 T00620018  RH  074%=      5-min Rain = 0
KCO1 101337Z 06001KT 06/02 A2979 RMK A01 T00610018  RH  074%=      5-min Rain = 0
KCO1 101338Z 06002KT 06/02 A2979 RMK A01 T00610018  RH  074%=      5-min Rain = 0
KCO1 101339Z 07002KT 06/02 A2979 RMK A01 T00610018  RH  074%=      5-min Rain = 0
KCO1 101340Z 07002KT 06/02 A2978 RMK A01 T00610018  RH  074%=      5-min Rain = 0
KCO1 101341Z 07002KT 06/02 A2978 RMK A01 T00610018  RH  074%=      5-min Rain = 0
KCO1 101342Z 07002KT 06/02 A2978 RMK A01 T00600018  RH  074%=      5-min Rain = 0
KCO1 101343Z 06002KT 06/02 A2978 RMK A01 T00600018  RH  074%=      5-min Rain = 0
KCO1 101344Z 06002KT 06/02 A2978 RMK A01 T00600018  RH  074%=      5-min Rain = 0
KCO1 101345Z 06002KT 06/02 A2978 RMK A01 T00600017  RH  074%=      5-min Rain = 0
KCO1 101346Z 04002KT 06/02 A2979 RMK A01 T00590017  RH  074%=      5-min Rain = 0
KCO1 101347Z 01002KT 06/02 A2979 RMK A01 T00590017  RH  075%=      5-min Rain = 0
KCO1 101348Z 36002KT 06/02 A2979 RMK A01 T00590017  RH  075%=      5-min Rain = 0
KCO1 101349Z 01002KT 06/02 A2979 RMK A01 T00580016  RH  074%=      5-min Rain = 0
KCO1 101350Z 03002KT 06/02 A2979 RMK A01 T00570016  RH  075%=      5-min Rain = 0
KCO1 101351Z 03003KT 06/02 A2979 RMK A01 T00570016  RH  075%=      5-min Rain = 0
KCO1 101352Z 04002KT 06/02 A2979 RMK A01 T00570016  RH  075%=      5-min Rain = 0
KCO1 101353Z 04002KT 06/02 A2979 RMK A01 T00570017  RH  075%=      5-min Rain = 0
KCO1 101354Z 05002KT 06/02 A2979 RMK A01 T00570017  RH  075%=      5-min Rain = 0
KCO1 101355Z 05003KT 06/02 A2978 RMK A01 T00570017  RH  076%=      5-min Rain = 0
KCO1 101356Z 05003KT 06/02 A2978 RMK A01 T00570017  RH  075%=      5-min Rain = 0
KCO1 101357Z 06004KT 06/02 A2978 RMK A01 T00560016  RH  075%=      5-min Rain = 0
KCO1 101358Z 07004KT 06/02 A2978 RMK A01 T00550015  RH  075%=      5-min Rain = 0
KCO1 101359Z 07004KT 05/01 A2978 RMK A01 T00540014  RH  075%=      5-min Rain = 0
KCO1 101400Z 07004KT 05/01 A2978 RMK A01 T00530014  RH  076%=      5-min Rain = 0
KCO1 101401Z 06004KT 05/01 A2978 RMK A01 T00520014  RH  076%=      5-min Rain = 0
KCO1 101402Z 06004KT 05/01 A2978 RMK A01 T00520014  RH  077%=      5-min Rain = 0
KCO1 101403Z 05003KT 05/01 A2978 RMK A01 T00510014  RH  077%=      5-min Rain = 0
KCO1 101404Z 04003KT 05/01 A2978 RMK A01 T00510014  RH  077%=      5-min Rain = 0
KCO1 101405Z 02002KT 05/01 A2979 RMK A01 T00510014  RH  077%=      5-min Rain = 0
KCO1 101406Z 02002KT 05/01 A2979 RMK A01 T00500014  RH  077%=      5-min Rain = 0
KCO1 101407Z 04002KT 05/02 A2979 RMK A01 T00500015  RH  078%=      5-min Rain = 0
KCO1 101408Z 06002KT 05/02 A2978 RMK A01 T00510015  RH  078%=      5-min Rain = 0
KCO1 101409Z 07003KT 05/02 A2978 RMK A01 T00520016  RH  078%=      5-min Rain = 0
KCO1 101410Z 08003KT 05/02 A2978 RMK A01 T00520016  RH  077%=      5-min Rain = 0
KCO1 101411Z 09003KT 05/02 A2978 RMK A01 T00520016  RH  077%=      5-min Rain = 0
KCO1 101412Z 10004KT 05/02 A2978 RMK A01 T00530016  RH  077%=      5-min Rain = 0
KCO1 101413Z 11004KT 05/02 A2978 RMK A01 T00520015  RH  077%=      5-min Rain = 0
KCO1 101414Z 12004KT 05/01 A2978 RMK A01 T00510013  RH  076%=      5-min Rain = 0
KCO1 101415Z 12005KT 05/01 A2978 RMK A01 T00500012  RH  076%=      5-min Rain = 0
KCO1 101416Z 12005KT 05/01 A2978 RMK A01 T00480011  RH  077%=      5-min Rain = 0
KCO1 101417Z 13005KT 05/01 A2978 RMK A01 T00470010  RH  077%=      5-min Rain = 0
KCO1 101418Z 12005KT 05/01 A2978 RMK A01 T00450010  RH  078%=      5-min Rain = 0
KCO1 101419Z 12006KT 04/01 A2978 RMK A01 T00440010  RH  078%=      5-min Rain = 0
KCO1 101420Z 12006KT 04/01 A2978 RMK A01 T00440011  RH  079%=      5-min Rain = 0
KCO1 101421Z 12006KT 05/02 A2978 RMK A01 T00460015  RH  080%=      5-min Rain = 0
KCO1 101422Z 12006KT 05/02 A2978 RMK A01 T00480017  RH  080%=      5-min Rain = 0
KCO1 101423Z 12006KT 05/02 A2978 RMK A01 T00500017  RH  079%=      5-min Rain = 0
KCO1 101424Z 12006KT 05/02 A2978 RMK A01 T00510017  RH  078%=      5-min Rain = 0
KCO1 101425Z 13006KT 05/02 A2978 RMK A01 T00520016  RH  078%=      5-min Rain = 0
KCO1 101426Z 13006KT 05/02 A2978 RMK A01 T00510015  RH  078%=      5-min Rain = 0
KCO1 101427Z 13007KT 05/02 A2977 RMK A01 T00520016  RH  078%=      5-min Rain = 0
KCO1 101428Z 13007KT 05/02 A2977 RMK A01 T00520016  RH  078%=      5-min Rain = 0
KCO1 101429Z 13008KT 05/02 A2977 RMK A01 T00520016  RH  078%=      5-min Rain = 0
KCO1 101430Z 13008KT 05/02 A2977 RMK A01 T00530017  RH  078%=      5-min Rain = 0
KCO1 101431Z 13007KT 05/02 A2977 RMK A01 T00540018  RH  077%=      5-min Rain = 0
KCO1 101432Z 13007KT 06/02 A2977 RMK A01 T00550018  RH  077%=      5-min Rain = 0
KCO1 101433Z 13006KT 06/02 A2977 RMK A01 T00560018  RH  077%=      5-min Rain = 0
KCO1 101434Z 14005KT 06/02 A2977 RMK A01 T00570019  RH  076%=      5-min Rain = 0
KCO1 101435Z 14005KT 06/02 A2977 RMK A01 T00580019  RH  076%=      5-min Rain = 0
KCO1 101436Z 14005KT 06/02 A2977 RMK A01 T00580019  RH  076%=      5-min Rain = 0
KCO1 101437Z 14005KT 06/02 A2977 RMK A01 T00590019  RH  076%=      5-min Rain = 0
KCO1 101438Z 14006KT 06/02 A2977 RMK A01 T00590019  RH  076%=      5-min Rain = 0
KCO1 101439Z 14006KT 06/02 A2977 RMK A01 T00600020  RH  075%=      5-min Rain = 0
KCO1 101440Z 14006KT 06/02 A2977 RMK A01 T00620021  RH  075%=      5-min Rain = 0
KCO1 101441Z 14006KT 06/02 A2977 RMK A01 T00640022  RH  074%=      5-min Rain = 0
KCO1 101442Z 14006KT 07/02 A2977 RMK A01 T00660022  RH  073%=      5-min Rain = 0
KCO1 101443Z 14006KT 07/02 A2977 RMK A01 T00680023  RH  073%=      5-min Rain = 0
KCO1 101444Z 14006KT 07/02 A2977 RMK A01 T00700023  RH  072%=      5-min Rain = 0
KCO1 101445Z 14006KT 07/02 A2977 RMK A01 T00710023  RH  071%=      5-min Rain = 0
KCO1 101446Z 14006KT 07/02 A2977 RMK A01 T00730023  RH  071%=      5-min Rain = 0
KCO1 101447Z 14006KT 08/02 A2977 RMK A01 T00750024  RH  070%=      5-min Rain = 0
KCO1 101448Z 14005KT 08/02 A2977 RMK A01 T00760023  RH  069%=      5-min Rain = 0
KCO1 101449Z 14005KT 08/02 A2978 RMK A01 T00770024  RH  069%=      5-min Rain = 0
KCO1 101450Z 13004KT 08/02 A2978 RMK A01 T00790024  RH  068%=      5-min Rain = 0
KCO1 101451Z 13004KT 08/02 A2978 RMK A01 T00800024  RH  068%=      5-min Rain = 0
KCO1 101452Z 14004KT 08/02 A2978 RMK A01 T00810024  RH  067%=      5-min Rain = 0
KCO1 101453Z 14003KT 08/02 A2978 RMK A01 T00820023  RH  067%=      5-min Rain = 0
KCO1 101454Z 14003KT 08/02 A2978 RMK A01 T00830024  RH  066%=      5-min Rain = 0
KCO1 101455Z 14002KT 08/02 A2978 RMK A01 T00840024  RH  066%=      5-min Rain = 0
KCO1 101456Z 14003KT 09/02 A2978 RMK A01 T00850024  RH  066%=      5-min Rain = 0
KCO1 101457Z 14004KT 09/02 A2977 RMK A01 T00860024  RH  065%=      5-min Rain = 0
KCO1 101458Z 14005KT 09/02 A2977 RMK A01 T00860024  RH  065%=      5-min Rain = 0
KCO1 101459Z 14005KT 09/02 A2977 RMK A01 T00870023  RH  064%=      5-min Rain = 0
KCO1 101500Z 13005KT 09/02 A2978 RMK A01 T00870024  RH  064%=      5-min Rain = 0
KCO1 101501Z 14006KT 09/02 A2978 RMK A01 T00870023  RH  064%=      5-min Rain = 0
KCO1 101502Z 13005KT 09/02 A2978 RMK A01 T00870023  RH  064%=      5-min Rain = 0
KCO1 101503Z 13004KT 09/02 A2978 RMK A01 T00870024  RH  064%=      5-min Rain = 0
KCO1 101504Z 13005KT 09/02 A2977 RMK A01 T00880024  RH  064%=      5-min Rain = 0
KCO1 101505Z 13005KT 09/02 A2977 RMK A01 T00890024  RH  064%=      5-min Rain = 0
KCO1 101506Z 13004KT 09/02 A2977 RMK A01 T00890024  RH  064%=      5-min Rain = 0
KCO1 101507Z 12005KT 09/02 A2977 RMK A01 T00900024  RH  063%=      5-min Rain = 0
KCO1 101508Z 13004KT 09/02 A2978 RMK A01 T00910024  RH  063%=      5-min Rain = 0
KCO1 101509Z 13004KT 09/03 A2978 RMK A01 T00920025  RH  063%=      5-min Rain = 0
KCO1 101510Z 13005KT 09/03 A2978 RMK A01 T00940025  RH  062%=      5-min Rain = 0
KCO1 101511Z 13004KT 09/02 A2978 RMK A01 T00940024  RH  062%=      5-min Rain = 0
KCO1 101512Z 11004KT 09/02 A2978 RMK A01 T00940024  RH  062%=      5-min Rain = 0
KCO1 101513Z 10003KT 10/02 A2978 RMK A01 T00950024  RH  061%=      5-min Rain = 0
KCO1 101514Z 06002KT 10/02 A2978 RMK A01 T00950024  RH  061%=      5-min Rain = 0
KCO1 101515Z 03002KT 10/02 A2979 RMK A01 T00950024  RH  061%=      5-min Rain = 0
KCO1 101516Z 35002KT 10/02 A2979 RMK A01 T00960024  RH  061%=      5-min Rain = 0
KCO1 101517Z 34003KT 10/03 A2979 RMK A01 T00950025  RH  061%=      5-min Rain = 0
KCO1 101518Z 35002KT 10/03 A2979 RMK A01 T00950025  RH  062%=      5-min Rain = 0
KCO1 101519Z 01002KT 10/03 A2979 RMK A01 T00950025  RH  062%=      5-min Rain = 0
KCO1 101520Z 36001KT 10/03 A2979 RMK A01 T00950025  RH  061%=      5-min Rain = 0
KCO1 101521Z 35002KT 10/03 A2979 RMK A01 T00960025  RH  061%=      5-min Rain = 0
KCO1 101522Z 35001KT 10/03 A2979 RMK A01 T00970025  RH  061%=      5-min Rain = 0
KCO1 101523Z 34000KT 10/03 A2979 RMK A01 T00980026  RH  061%=      5-min Rain = 0
KCO1 101524Z 00000KT 10/03 A2979 RMK A01 T01000027  RH  061%=      5-min Rain = 0
KCO1 101525Z 00000KT 10/03 A2979 RMK A01 T01030028  RH  060%=      5-min Rain = 0
KCO1 101526Z 05001KT 10/03 A2979 RMK A01 T01040026  RH  059%=      5-min Rain = 0
KCO1 101527Z 05001KT 10/03 A2979 RMK A01 T01040025  RH  058%=      5-min Rain = 0
KCO1 101528Z 06001KT 10/03 A2979 RMK A01 T01040025  RH  058%=      5-min Rain = 0
KCO1 101529Z 08001KT 10/03 A2979 RMK A01 T01040025  RH  058%=      5-min Rain = 0
KCO1 101530Z 07002KT 10/03 A2979 RMK A01 T01040025  RH  058%=      5-min Rain = 0
KCO1 101531Z 06001KT 11/03 A2979 RMK A01 T01050025  RH  058%=      5-min Rain = 0
KCO1 101532Z 07001KT 11/03 A2979 RMK A01 T01060026  RH  058%=      5-min Rain = 0
KCO1 101533Z 09001KT 11/03 A2979 RMK A01 T01070025  RH  057%=      5-min Rain = 0
KCO1 101534Z 10001KT 11/03 A2979 RMK A01 T01070025  RH  057%=      5-min Rain = 0
KCO1 101535Z 09001KT 11/03 A2979 RMK A01 T01100026  RH  056%=      5-min Rain = 0
KCO1 101536Z 09001KT 11/03 A2979 RMK A01 T01120026  RH  056%=      5-min Rain = 0
KCO1 101537Z 08000KT 11/03 A2979 RMK A01 T01130026  RH  055%=      5-min Rain = 0
KCO1 101538Z 06001KT 11/03 A2979 RMK A01 T01140027  RH  055%=      5-min Rain = 0
KCO1 101539Z 08002KT 12/03 A2979 RMK A01 T01160027  RH  055%=      5-min Rain = 0
KCO1 101540Z 07002KT 12/03 A2979 RMK A01 T01150026  RH  054%=      5-min Rain = 0
KCO1 101541Z 06001KT 12/03 A2979 RMK A01 T01150027  RH  055%=      5-min Rain = 0
KCO1 101542Z 07002KT 11/03 A2979 RMK A01 T01140026  RH  054%=      5-min Rain = 0
KCO1 101543Z 07001KT 11/03 A2979 RMK A01 T01130025  RH  055%=      5-min Rain = 0
KCO1 101544Z 07002KT 11/03 A2979 RMK A01 T01120025  RH  055%=      5-min Rain = 0
KCO1 101545Z 09001KT 11/03 A2979 RMK A01 T01120026  RH  055%=      5-min Rain = 0
KCO1 101546Z 03001KT 11/03 A2979 RMK A01 T01140027  RH  055%=      5-min Rain = 0
KCO1 101547Z 06001KT 12/03 A2979 RMK A01 T01150027  RH  055%=      5-min Rain = 0
KCO1 101548Z 07002KT 12/03 A2979 RMK A01 T01150028  RH  055%=      5-min Rain = 0
KCO1 101549Z 09002KT 12/03 A2979 RMK A01 T01160028  RH  055%=      5-min Rain = 0
KCO1 101550Z 10002KT 12/03 A2979 RMK A01 T01170027  RH  054%=      5-min Rain = 0
KCO1 101551Z 10002KT 12/03 A2979 RMK A01 T01160028  RH  054%=      5-min Rain = 0
KCO1 101552Z 09002KT 12/03 A2979 RMK A01 T01170028  RH  055%=      5-min Rain = 0
KCO1 101553Z 09001KT 12/03 A2979 RMK A01 T01180030  RH  055%=      5-min Rain = 0
KCO1 101554Z 09002KT 12/03 A2979 RMK A01 T01210031  RH  054%=      5-min Rain = 0
KCO1 101555Z 10002KT 12/03 A2979 RMK A01 T01210030  RH  053%=      5-min Rain = 0
KCO1 101556Z 10001KT 12/03 A2979 RMK A01 T01220030  RH  053%=      5-min Rain = 0
KCO1 101557Z 11003KT 12/03 A2979 RMK A01 T01240031  RH  053%=      5-min Rain = 0
KCO1 101558Z 11003KT 13/03 A2979 RMK A01 T01250030  RH  052%=      5-min Rain = 0
KCO1 101559Z 11004KT 13/03 A2979 RMK A01 T01260029  RH  052%=      5-min Rain = 0
KCO1 101600Z 10002KT 13/03 A2979 RMK A01 T01270029  RH  051%=      5-min Rain = 0
KCO1 101601Z 09003KT 13/03 A2979 RMK A01 T01280030  RH  051%=      5-min Rain = 0
KCO1 101602Z 09002KT 13/03 A2979 RMK A01 T01290028  RH  050%=      5-min Rain = 0
KCO1 101603Z 08002KT 13/03 A2979 RMK A01 T01290029  RH  051%=      5-min Rain = 0
KCO1 101604Z 07002KT 13/03 A2979 RMK A01 T01310029  RH  050%=      5-min Rain = 0
KCO1 101605Z 08002KT 13/03 A2979 RMK A01 T01310028  RH  050%=      5-min Rain = 0
KCO1 101606Z 08002KT 13/03 A2979 RMK A01 T01310028  RH  050%=      5-min Rain = 0
KCO1 101607Z 08002KT 13/03 A2979 RMK A01 T01320030  RH  050%=      5-min Rain = 0
KCO1 101608Z 07002KT 13/03 A2979 RMK A01 T01330031  RH  050%=      5-min Rain = 0
KCO1 101609Z 08002KT 14/03 A2979 RMK A01 T01360034  RH  050%=      5-min Rain = 0
KCO1 101610Z 08002KT 14/03 A2978 RMK A01 T01370032  RH  049%=      5-min Rain = 0
KCO1 101611Z 09003KT 14/03 A2978 RMK A01 T01380031  RH  048%=      5-min Rain = 0
KCO1 101612Z 08003KT 14/03 A2978 RMK A01 T01400031  RH  048%=      5-min Rain = 0
KCO1 101613Z 07003KT 14/03 A2978 RMK A01 T01410030  RH  047%=      5-min Rain = 0
KCO1 101614Z 08003KT 14/03 A2978 RMK A01 T01420032  RH  048%=      5-min Rain = 0
KCO1 101615Z 07003KT 14/03 A2978 RMK A01 T01430033  RH  047%=      5-min Rain = 0
KCO1 101616Z 07003KT 14/03 A2978 RMK A01 T01440032  RH  047%=      5-min Rain = 0
KCO1 101617Z 07003KT 14/03 A2978 RMK A01 T01440032  RH  047%=      5-min Rain = 0
KCO1 101618Z 08003KT 14/03 A2978 RMK A01 T01440032  RH  047%=      5-min Rain = 0
KCO1 101619Z 08003KT 15/03 A2978 RMK A01 T01470034  RH  047%=      5-min Rain = 0
KCO1 101620Z 08003KT 15/03 A2978 RMK A01 T01490033  RH  046%=      5-min Rain = 0
KCO1 101621Z 09004KT 15/03 A2978 RMK A01 T01500033  RH  046%=      5-min Rain = 0
KCO1 101622Z 07003KT 15/03 A2978 RMK A01 T01500033  RH  045%=      5-min Rain = 0
KCO1 101623Z 07003KT 15/03 A2978 RMK A01 T01510033  RH  045%=      5-min Rain = 0
KCO1 101624Z 09003KT 15/03 A2978 RMK A01 T01510034  RH  045%=      5-min Rain = 0
KCO1 101625Z 09004KT 15/03 A2978 RMK A01 T01530034  RH  045%=      5-min Rain = 0
KCO1 101626Z 07004KT 15/04 A2978 RMK A01 T01530035  RH  045%=      5-min Rain = 0
KCO1 101627Z 07003KT 16/04 A2978 RMK A01 T01550035  RH  045%=      5-min Rain = 0
KCO1 101628Z 07003KT 16/04 A2978 RMK A01 T01560035  RH  044%=      5-min Rain = 0
KCO1 101629Z 07003KT 16/04 A2978 RMK A01 T01560035  RH  044%=      5-min Rain = 0
KCO1 101630Z 06003KT 16/04 A2978 RMK A01 T01570035  RH  044%=      5-min Rain = 0
KCO1 101631Z 06002KT 16/04 A2978 RMK A01 T01590035  RH  044%=      5-min Rain = 0
KCO1 101632Z 05002KT 16/04 A2978 RMK A01 T01590035  RH  043%=      5-min Rain = 0
KCO1 101633Z 03003KT 16/04 A2978 RMK A01 T01610035  RH  043%=      5-min Rain = 0
KCO1 101634Z 02003KT 16/04 A2978 RMK A01 T01610035  RH  043%=      5-min Rain = 0
KCO1 101635Z 04003KT 16/04 A2978 RMK A01 T01600035  RH  043%=      5-min Rain = 0
KCO1 101636Z 01002KT 16/03 A2978 RMK A01 T01600033  RH  043%=      5-min Rain = 0
KCO1 101637Z 36002KT 16/03 A2978 RMK A01 T01600033  RH  043%=      5-min Rain = 0
KCO1 101638Z 03003KT 16/04 A2978 RMK A01 T01620035  RH  043%=      5-min Rain = 0
KCO1 101639Z 04002KT 16/04 A2978 RMK A01 T01620035  RH  043%=      5-min Rain = 0
KCO1 101640Z 04002KT 16/04 A2978 RMK A01 T01620035  RH  043%=      5-min Rain = 0
KCO1 101641Z 05002KT 16/04 A2978 RMK A01 T01620035  RH  043%=      5-min Rain = 0
KCO1 101642Z 05003KT 16/04 A2978 RMK A01 T01640036  RH  042%=      5-min Rain = 0
KCO1 101643Z 04003KT 17/04 A2978 RMK A01 T01650035  RH  042%=      5-min Rain = 0
KCO1 101644Z 03004KT 17/04 A2978 RMK A01 T01660036  RH  042%=      5-min Rain = 0
KCO1 101645Z 03003KT 17/03 A2978 RMK A01 T01660034  RH  041%=      5-min Rain = 0
KCO1 101646Z 04004KT 17/03 A2978 RMK A01 T01660033  RH  041%=      5-min Rain = 0
KCO1 101647Z 04003KT 17/03 A2978 RMK A01 T01650033  RH  041%=      5-min Rain = 0
KCO1 101648Z 04003KT 17/03 A2978 RMK A01 T01650034  RH  042%=      5-min Rain = 0
KCO1 101649Z 02003KT 17/04 A2978 RMK A01 T01660035  RH  041%=      5-min Rain = 0
KCO1 101650Z 03003KT 17/04 A2978 RMK A01 T01670035  RH  041%=      5-min Rain = 0
KCO1 101651Z 04002KT 17/03 A2978 RMK A01 T01680034  RH  041%=      5-min Rain = 0
KCO1 101652Z 02002KT 17/03 A2978 RMK A01 T01690034  RH  040%=      5-min Rain = 0
KCO1 101653Z 04002KT 17/03 A2978 RMK A01 T01700034  RH  040%=      5-min Rain = 0
KCO1 101654Z 03002KT 17/03 A2978 RMK A01 T01720034  RH  040%=      5-min Rain = 0
KCO1 101655Z 02002KT 17/03 A2978 RMK A01 T01720033  RH  040%=      5-min Rain = 0
KCO1 101656Z 03002KT 17/04 A2978 RMK A01 T01720035  RH  040%=      5-min Rain = 0
KCO1 101657Z 02002KT 17/03 A2978 RMK A01 T01730033  RH  039%=      5-min Rain = 0
KCO1 101658Z 02002KT 17/03 A2978 RMK A01 T01730032  RH  039%=      5-min Rain = 0
KCO1 101659Z 02002KT 17/03 A2978 RMK A01 T01730032  RH  039%=      5-min Rain = 0
KCO1 101700Z 03002KT 17/03 A2978 RMK A01 T01730032  RH  039%=      5-min Rain = 0
KCO1 101701Z 04001KT 18/03 A2978 RMK A01 T01750033  RH  039%=      5-min Rain = 0
KCO1 101702Z 08003KT 18/03 A2978 RMK A01 T01770032  RH  038%=      5-min Rain = 0
KCO1 101703Z 08001KT 18/03 A2978 RMK A01 T01790033  RH  038%=      5-min Rain = 0
KCO1 101704Z 06001KT 18/03 A2978 RMK A01 T01790031  RH  037%=      5-min Rain = 0
KCO1 101705Z 04002KT 18/03 A2977 RMK A01 T01800031  RH  037%=      5-min Rain = 0
KCO1 101706Z 03002KT 18/03 A2977 RMK A01 T01800031  RH  037%=      5-min Rain = 0
KCO1 101707Z 04002KT 18/03 A2977 RMK A01 T01800030  RH  037%=      5-min Rain = 0
KCO1 101708Z 06002KT 18/03 A2977 RMK A01 T01810030  RH  037%=      5-min Rain = 0
KCO1 101709Z 06002KT 18/03 A2977 RMK A01 T01820029  RH  036%=      5-min Rain = 0
KCO1 101710Z 04002KT 18/03 A2977 RMK A01 T01830028  RH  036%=      5-min Rain = 0
KCO1 101711Z 02003KT 18/03 A2977 RMK A01 T01840030  RH  036%=      5-min Rain = 0
KCO1 101712Z 02003KT 18/03 A2977 RMK A01 T01840029  RH  035%=      5-min Rain = 0
KCO1 101713Z 00004KT 18/03 A2977 RMK A01 T01830028  RH  035%=      5-min Rain = 0
KCO1 101714Z 36004KT 18/03 A2977 RMK A01 T01830029  RH  036%=      5-min Rain = 0
KCO1 101715Z 35004KT 18/03 A2977 RMK A01 T01840029  RH  036%=      5-min Rain = 0
KCO1 101716Z 34003KT 18/03 A2977 RMK A01 T01840027  RH  035%=      5-min Rain = 0
KCO1 101717Z 32003KT 18/03 A2977 RMK A01 T01830026  RH  035%=      5-min Rain = 0
KCO1 101718Z 34004KT 18/03 A2977 RMK A01 T01830028  RH  036%=      5-min Rain = 0
KCO1 101719Z 35003KT 18/03 A2977 RMK A01 T01840029  RH  036%=      5-min Rain = 0
KCO1 101720Z 01003KT 18/03 A2977 RMK A01 T01840028  RH  035%=      5-min Rain = 0
KCO1 101721Z 02002KT 18/03 A2977 RMK A01 T01840029  RH  035%=      5-min Rain = 0
KCO1 101722Z 35004KT 19/03 A2977 RMK A01 T01850030  RH  036%=      5-min Rain = 0
KCO1 101723Z 34004KT 19/03 A2977 RMK A01 T01850030  RH  036%=      5-min Rain = 0
KCO1 101724Z 33004KT 19/03 A2977 RMK A01 T01860029  RH  035%=      5-min Rain = 0
KCO1 101725Z 35004KT 19/03 A2977 RMK A01 T01860029  RH  035%=      5-min Rain = 0
KCO1 101726Z 35003KT 19/03 A2977 RMK A01 T01860030  RH  035%=      5-min Rain = 0
KCO1 101727Z 01004KT 19/03 A2977 RMK A01 T01870031  RH  035%=      5-min Rain = 0
KCO1 101728Z 01004KT 19/03 A2977 RMK A01 T01890030  RH  035%=      5-min Rain = 0
KCO1 101729Z 03003KT 19/03 A2977 RMK A01 T01880029  RH  035%=      5-min Rain = 0
KCO1 101730Z 03004KT 19/03 A2977 RMK A01 T01870029  RH  035%=      5-min Rain = 0
KCO1 101731Z 03004KT 19/03 A2976 RMK A01 T01880029  RH  035%=      5-min Rain = 0
KCO1 101732Z 04004KT 19/03 A2976 RMK A01 T01890028  RH  034%=      5-min Rain = 0
KCO1 101733Z 01004KT 19/03 A2976 RMK A01 T01910031  RH  035%=      5-min Rain = 0
KCO1 101734Z 03003KT 19/03 A2976 RMK A01 T01920030  RH  034%=      5-min Rain = 0
KCO1 101735Z 02004KT 19/03 A2976 RMK A01 T01920028  RH  034%=      5-min Rain = 0
KCO1 101736Z 01003KT 19/03 A2976 RMK A01 T01920031  RH  034%=      5-min Rain = 0
KCO1 101737Z 01004KT 19/03 A2976 RMK A01 T01930032  RH  034%=      5-min Rain = 0
KCO1 101738Z 01004KT 19/03 A2976 RMK A01 T01940032  RH  034%=      5-min Rain = 0
KCO1 101739Z 01003KT 19/03 A2976 RMK A01 T01940030  RH  034%=      5-min Rain = 0
KCO1 101740Z 01003KT 20/03 A2976 RMK A01 T01950031  RH  034%=      5-min Rain = 0
KCO1 101741Z 03003KT 20/03 A2975 RMK A01 T01950030  RH  033%=      5-min Rain = 0
KCO1 101742Z 04003KT 20/03 A2975 RMK A01 T01950030  RH  033%=      5-min Rain = 0
KCO1 101743Z 04002KT 20/03 A2975 RMK A01 T01960031  RH  033%=      5-min Rain = 0
KCO1 101744Z 04003KT 20/03 A2975 RMK A01 T01960030  RH  033%=      5-min Rain = 0
KCO1 101745Z 06003KT 20/03 A2975 RMK A01 T01960030  RH  033%=      5-min Rain = 0
KCO1 101746Z 02002KT 20/03 A2975 RMK A01 T01960032  RH  034%=      5-min Rain = 0
KCO1 101747Z 01003KT 20/03 A2975 RMK A01 T01980033  RH  034%=      5-min Rain = 0
KCO1 101748Z 01003KT 20/03 A2975 RMK A01 T01990033  RH  033%=      5-min Rain = 0
KCO1 101749Z 34003KT 20/03 A2975 RMK A01 T02000032  RH  033%=      5-min Rain = 0
KCO1 101750Z 34003KT 20/03 A2975 RMK A01 T02000030  RH  033%=      5-min Rain = 0
KCO1 101751Z 35003KT 20/03 A2975 RMK A01 T01990032  RH  033%=      5-min Rain = 0
KCO1 101752Z 34002KT 20/03 A2975 RMK A01 T02000031  RH  033%=      5-min Rain = 0
KCO1 101753Z 00002KT 20/03 A2975 RMK A01 T02000029  RH  032%=      5-min Rain = 0
KCO1 101754Z 02002KT 20/03 A2975 RMK A01 T02000028  RH  032%=      5-min Rain = 0
KCO1 101755Z 34004KT 20/03 A2975 RMK A01 T02000029  RH  032%=      5-min Rain = 0
KCO1 101756Z 31003KT 20/03 A2975 RMK A01 T02010030  RH  032%=      5-min Rain = 0
KCO1 101757Z 31002KT 20/03 A2974 RMK A01 T02010030  RH  032%=      5-min Rain = 0
KCO1 101758Z 00003KT 20/03 A2974 RMK A01 T02020031  RH  032%=      5-min Rain = 0
KCO1 101759Z 00002KT 20/03 A2974 RMK A01 T02030030  RH  032%=      5-min Rain = 0
KCO1 101800Z 01004KT 20/03 A2974 RMK A01 T02030031  RH  032%=      5-min Rain = 0
KCO1 101801Z 35004KT 20/03 A2974 RMK A01 T02040033  RH  032%=      5-min Rain = 0
KCO1 101802Z 34002KT 20/03 A2974 RMK A01 T02040032  RH  032%=      5-min Rain = 0
KCO1 101803Z 03003KT 20/03 A2974 RMK A01 T02040033  RH  032%=      5-min Rain = 0
KCO1 101804Z 04003KT 20/03 A2974 RMK A01 T02040030  RH  032%=      5-min Rain = 0
KCO1 101805Z 04003KT 20/03 A2973 RMK A01 T02040030  RH  032%=      5-min Rain = 0
KCO1 101806Z 04003KT 21/03 A2973 RMK A01 T02050030  RH  031%=      5-min Rain = 0
KCO1 101807Z 00003KT 21/03 A2973 RMK A01 T02060031  RH  031%=      5-min Rain = 0
KCO1 101808Z 01003KT 21/03 A2973 RMK A01 T02080031  RH  031%=      5-min Rain = 0
KCO1 101809Z 33001KT 21/03 A2973 RMK A01 T02100033  RH  031%=      5-min Rain = 0
KCO1 101810Z 36002KT 21/03 A2973 RMK A01 T02120033  RH  031%=      5-min Rain = 0
KCO1 101811Z 33002KT 21/03 A2973 RMK A01 T02140026  RH  029%=      5-min Rain = 0
KCO1 101812Z 32003KT 22/03 A2973 RMK A01 T02150025  RH  028%=      5-min Rain = 0
KCO1 101813Z 31002KT 22/02 A2973 RMK A01 T02160022  RH  028%=      5-min Rain = 0
KCO1 101814Z 36001KT 22/02 A2973 RMK A01 T02160020  RH  027%=      5-min Rain = 0
KCO1 101815Z 01001KT 22/02 A2973 RMK A01 T02160021  RH  028%=      5-min Rain = 0
KCO1 101816Z 30001KT 22/02 A2972 RMK A01 T02160022  RH  028%=      5-min Rain = 0
KCO1 101817Z 28001KT 22/02 A2972 RMK A01 T02180023  RH  028%=      5-min Rain = 0
KCO1 101818Z 28001KT 22/02 A2972 RMK A01 T02190024  RH  028%=      5-min Rain = 0
KCO1 101819Z 28000KT 22/03 A2972 RMK A01 T02210028  RH  028%=      5-min Rain = 0
KCO1 101820Z 07001KT 22/02 A2972 RMK A01 T02230024  RH  027%=      5-min Rain = 0
KCO1 101821Z 09001KT 22/03 A2972 RMK A01 T02240027  RH  027%=      5-min Rain = 0
KCO1 101822Z 09001KT 23/03 A2972 RMK A01 T02270031  RH  028%=      5-min Rain = 0
KCO1 101823Z 06001KT 23/03 A2971 RMK A01 T02300032  RH  027%=      5-min Rain = 0
KCO1 101824Z 02001KT 23/03 A2971 RMK A01 T02320033  RH  027%=      5-min Rain = 0
KCO1 101825Z 02003KT 23/03 A2971 RMK A01 T02330030  RH  026%=      5-min Rain = 0
KCO1 101826Z 01002KT 23/03 A2971 RMK A01 T02310027  RH  026%=      5-min Rain = 0
KCO1 101827Z 34001KT 23/03 A2971 RMK A01 T02290026  RH  026%=      5-min Rain = 0
KCO1 101828Z 34003KT 23/03 A2971 RMK A01 T02290027  RH  027%=      5-min Rain = 0
KCO1 101829Z 33002KT 23/03 A2971 RMK A01 T02280027  RH  027%=      5-min Rain = 0
KCO1 101830Z 33001KT 23/03 A2971 RMK A01 T02280028  RH  027%=      5-min Rain = 0
KCO1 101831Z 34001KT 23/03 A2971 RMK A01 T02290029  RH  027%=      5-min Rain = 0
KCO1 101832Z 36002KT 23/03 A2971 RMK A01 T02300028  RH  027%=      5-min Rain = 0
KCO1 101833Z 02001KT 23/03 A2971 RMK A01 T02310025  RH  026%=      5-min Rain = 0
KCO1 101834Z 06001KT 23/03 A2971 RMK A01 T02300025  RH  026%=      5-min Rain = 0
KCO1 101835Z 02001KT 23/03 A2971 RMK A01 T02310027  RH  026%=      5-min Rain = 0
KCO1 101836Z 33003KT 23/03 A2971 RMK A01 T02340028  RH  026%=      5-min Rain = 0
KCO1 101837Z 33004KT 23/03 A297 RMK A01 T02340026  RH  026%=      5-min Rain = 0
KCO1 101838Z 32004KT 23/02 A297 RMK A01 T02330024  RH  025%=      5-min Rain = 0
KCO1 101839Z 31002KT 23/02 A297 RMK A01 T02320023  RH  025%=      5-min Rain = 0
KCO1 101840Z 29004KT 23/03 A297 RMK A01 T02330025  RH  026%=      5-min Rain = 0
KCO1 101841Z 28003KT 24/02 A297 RMK A01 T02350022  RH  025%=      5-min Rain = 0
KCO1 101842Z 27003KT 24/02 A297 RMK A01 T02360023  RH  025%=      5-min Rain = 0
KCO1 101843Z 29004KT 24/03 A297 RMK A01 T02370025  RH  025%=      5-min Rain = 0
KCO1 101844Z 30002KT 24/03 A297 RMK A01 T02380025  RH  025%=      5-min Rain = 0
KCO1 101845Z 29001KT 24/03 A297 RMK A01 T02370025  RH  025%=      5-min Rain = 0
KCO1 101846Z 35003KT 24/03 A297 RMK A01 T02370028  RH  026%=      5-min Rain = 0
KCO1 101847Z 00002KT 24/03 A2969 RMK A01 T02370028  RH  026%=      5-min Rain = 0
KCO1 101848Z 36002KT 24/03 A2969 RMK A01 T02370028  RH  025%=      5-min Rain = 0
KCO1 101849Z 34002KT 24/03 A2969 RMK A01 T02370027  RH  025%=      5-min Rain = 0
KCO1 101850Z 35003KT 24/03 A2969 RMK A01 T02370028  RH  025%=      5-min Rain = 0
KCO1 101851Z 32004KT 24/03 A2969 RMK A01 T02370026  RH  025%=      5-min Rain = 0
KCO1 101852Z 30003KT 24/03 A2969 RMK A01 T02380025  RH  025%=      5-min Rain = 0
KCO1 101853Z 31003KT 24/02 A2969 RMK A01 T02380021  RH  024%=      5-min Rain = 0
KCO1 101854Z 31002KT 24/03 A2969 RMK A01 T02380025  RH  025%=      5-min Rain = 0
KCO1 101855Z 32004KT 24/03 A2969 RMK A01 T02410026  RH  024%=      5-min Rain = 0
KCO1 101856Z 33006KT 24/02 A2969 RMK A01 T02430021  RH  023%=      5-min Rain = 0
KCO1 101857Z 31004KT 24/02 A2969 RMK A01 T02410020  RH  024%=      5-min Rain = 0
KCO1 101858Z 33003KT 24/02 A2969 RMK A01 T02410019  RH  023%=      5-min Rain = 0
KCO1 101859Z 31003KT 24/02 A2968 RMK A01 T02410021  RH  024%=      5-min Rain = 0
KCO1 101900Z 30005KT 24/02 A2968 RMK A01 T02410018  RH  023%=      5-min Rain = 0
KCO1 101901Z 32004KT 24/02 A2968 RMK A01 T02430018  RH  023%=      5-min Rain = 0
KCO1 101902Z 35005KT 25/02 A2968 RMK A01 T02470021  RH  023%=      5-min Rain = 0
KCO1 101903Z 34006KT 25/02 A2968 RMK A01 T02460022  RH  023%=      5-min Rain = 0
KCO1 101904Z 34007KT 25/02 A2968 RMK A01 T02450021  RH  023%=      5-min Rain = 0
KCO1 101905Z 33005KT 25/02 A2968 RMK A01 T02460021  RH  023%=      5-min Rain = 0
KCO1 101906Z 34006KT 25/02 A2968 RMK A01 T02460020  RH  023%=      5-min Rain = 0
KCO1 101907Z 33005KT 25/02 A2968 RMK A01 T02460019  RH  023%=      5-min Rain = 0
KCO1 101908Z 33003KT 25/02 A2967 RMK A01 T02450021  RH  023%=      5-min Rain = 0
KCO1 101909Z 01005KT 25/02 A2967 RMK A01 T02450020  RH  023%=      5-min Rain = 0
KCO1 101910Z 36003KT 25/02 A2967 RMK A01 T02450022  RH  023%=      5-min Rain = 0
KCO1 101911Z 33005KT 25/02 A2967 RMK A01 T02460023  RH  023%=      5-min Rain = 0
KCO1 101912Z 32006KT 25/02 A2967 RMK A01 T02490018  RH  022%=      5-min Rain = 0
KCO1 101913Z 30005KT 25/01 A2967 RMK A01 T02500013  RH  021%=      5-min Rain = 0
KCO1 101914Z 29008KT 25/01 A2967 RMK A01 T02510013  RH  021%=      5-min Rain = 0
KCO1 101915Z 29004KT 25/01 A2967 RMK A01 T02520012  RH  021%=      5-min Rain = 0
KCO1 101916Z 32003KT 25/01 A2967 RMK A01 T02520011  RH  021%=      5-min Rain = 0
KCO1 101917Z 34001KT 25/01 A2967 RMK A01 T02520011  RH  021%=      5-min Rain = 0
KCO1 101918Z 30002KT 25/01 A2966 RMK A01 T02530013  RH  021%=      5-min Rain = 0
KCO1 101919Z 30002KT 25/01 A2966 RMK A01 T02540013  RH  021%=      5-min Rain = 0
KCO1 101920Z 32003KT 25/02 A2966 RMK A01 T02540015  RH  021%=      5-min Rain = 0
KCO1 101921Z 34002KT 26/01 A2966 RMK A01 T02550013  RH  021%=      5-min Rain = 0
KCO1 101922Z 34003KT 26/01 A2966 RMK A01 T02550012  RH  020%=      5-min Rain = 0
KCO1 101923Z 28001KT 26/01 A2966 RMK A01 T02550009  RH  020%=      5-min Rain = 0
KCO1 101924Z 13000KT 26/01 A2966 RMK A01 T02550009  RH  020%=      5-min Rain = 0
KCO1 101925Z 08000KT 26/01 A2966 RMK A01 T02570011  RH  020%=      5-min Rain = 0
KCO1 101926Z 34002KT 26/01 A2966 RMK A01 T02590010  RH  020%=      5-min Rain = 0
KCO1 101927Z 33004KT 26/01 A2966 RMK A01 T02590007  RH  019%=      5-min Rain = 0
KCO1 101928Z 31007KT 26/01 A2966 RMK A01 T02560007  RH  020%=      5-min Rain = 0
KCO1 101929Z 30003KT 26/01 A2966 RMK A01 T02550009  RH  020%=      5-min Rain = 0
KCO1 101930Z 29007KT 26/01 A2966 RMK A01 T02550007  RH  020%=      5-min Rain = 0
KCO1 101931Z 28007KT 25/01 A2966 RMK A01 T02540010  RH  020%=      5-min Rain = 0
KCO1 101932Z 29009KT 26/01 A2965 RMK A01 T02550010  RH  020%=      5-min Rain = 0
KCO1 101933Z 29006KT 26/01 A2965 RMK A01 T02560008  RH  020%=      5-min Rain = 0
KCO1 101934Z 29007KT 26/01 A2965 RMK A01 T02550009  RH  020%=      5-min Rain = 0
KCO1 101935Z 24005KT 26/01 A2965 RMK A01 T02560009  RH  020%=      5-min Rain = 0
KCO1 101936Z 30007KT 26/01 A2965 RMK A01 T02560009  RH  020%=      5-min Rain = 0
KCO1 101937Z 31008KT 26/01 A2965 RMK A01 T02550010  RH  020%=      5-min Rain = 0
KCO1 101938Z 30007KT 26/01 A2965 RMK A01 T02550010  RH  020%=      5-min Rain = 0
KCO1 101939Z 29008KT 26/01 A2965 RMK A01 T02550010  RH  020%=      5-min Rain = 0
KCO1 101940Z 27009KT 26/01 A2965 RMK A01 T02550011  RH  020%=      5-min Rain = 0
KCO1 101941Z 27008KT 26/01 A2965 RMK A01 T02560010  RH  020%=      5-min Rain = 0
KCO1 101942Z 28009KT 26/01 A2965 RMK A01 T02560011  RH  020%=      5-min Rain = 0
KCO1 101943Z 26008KT 26/01 A2965 RMK A01 T02560011  RH  020%=      5-min Rain = 0
KCO1 101944Z 28009KT 26/01 A2965 RMK A01 T02570011  RH  020%=      5-min Rain = 0
KCO1 101945Z 28009KT 26/01 A2964 RMK A01 T02580013  RH  020%=      5-min Rain = 0
KCO1 101946Z 29012KT 26/01 A2964 RMK A01 T02610012  RH  020%=      5-min Rain = 0
KCO1 101947Z 26010KT 26/01 A2964 RMK A01 T02610012  RH  020%=      5-min Rain = 0
KCO1 101948Z 25012KT 26/01 A2964 RMK A01 T02620010  RH  019%=      5-min Rain = 0
KCO1 101949Z 25013KT 26/01 A2964 RMK A01 T02640010  RH  019%=      5-min Rain = 0
KCO1 101950Z 25012G17KT 27/01 A2964 RMK A01 T02660009  RH  019%=      5-min Rain = 0
KCO1 101951Z 26016G21KT 27/01 A2964 RMK A01 T02660007  RH  019%=      5-min Rain = 0
KCO1 101952Z 26014G19KT 27/01 A2964 RMK A01 T02660006  RH  018%=      5-min Rain = 0
KCO1 101953Z 27018KT 27/01 A2964 RMK A01 T02660006  RH  018%=      5-min Rain = 0
KCO1 101954Z 26015G21KT 27/01 A2964 RMK A01 T02670005  RH  018%=      5-min Rain = 0
KCO1 101955Z 26019G25KT 27/01 A2964 RMK A01 T02680005  RH  018%=      5-min Rain = 0
KCO1 101956Z 26020KT 27/00 A2964 RMK A01 T02660001  RH  018%=      5-min Rain = 0
KCO1 101957Z 26016KT 26/00 A2964 RMK A01 T02610001  RH  018%=      5-min Rain = 0
KCO1 101958Z 26020KT 26/00 A2964 RMK A01 T02590001  RH  018%=      5-min Rain = 0
KCO1 101959Z 25018KT 26/00 A2964 RMK A01 T02560001  RH  019%=      5-min Rain = 0
KCO1 102000Z 25014KT 26/00 A2964 RMK A01 T02570003  RH  019%=      5-min Rain = 0
KCO1 102001Z 25019G25KT 26/00 A2964 RMK A01 T02600004  RH  019%=      5-min Rain = 0
KCO1 102002Z 26019G24KT 26/00 A2964 RMK A01 T02630002  RH  018%=      5-min Rain = 0
KCO1 102003Z 26018G24KT 26/00 A2964 RMK A01 T02630001  RH  018%=      5-min Rain = 0
KCO1 102004Z 27018KT 26/00 A2964 RMK A01 T02610002  RH  018%=      5-min Rain = 0
KCO1 102005Z 27017KT 26/00 A2964 RMK A01 T02610000  RH  018%=      5-min Rain = 0
KCO1 102006Z 27020G26KT 26/00 A2964 RMK A01 T026100-0  RH  018%=      5-min Rain = 0
KCO1 102007Z 27019KT 26/00 A2964 RMK A01 T02610000  RH  018%=      5-min Rain = 0
KCO1 102008Z 27017G22KT 26/00 A2963 RMK A01 T02620003  RH  018%=      5-min Rain = 0
KCO1 102009Z 27017G23KT 26/00 A2964 RMK A01 T02630004  RH  018%=      5-min Rain = 0
KCO1 102010Z 27023G28KT 26/00 A2964 RMK A01 T02600003  RH  019%=      5-min Rain = 0
KCO1 102011Z 26019G24KT 26/00 A2963 RMK A01 T02550001  RH  019%=      5-min Rain = 0
KCO1 102012Z 27018KT 25/00 A2963 RMK A01 T02530002  RH  019%=      5-min Rain = 0
KCO1 102013Z 27020G25KT 26/00 A2963 RMK A01 T02550004  RH  019%=      5-min Rain = 0
KCO1 102014Z 28022G27KT 26/00 A2963 RMK A01 T02570003  RH  019%=      5-min Rain = 0
KCO1 102015Z 28022G27KT 26/00 A2963 RMK A01 T02580002  RH  019%=      5-min Rain = 0
KCO1 102016Z 28021G26KT 26/00 A2963 RMK A01 T02580002  RH  019%=      5-min Rain = 0
KCO1 102017Z 27021G26KT 26/00 A2963 RMK A01 T02570001  RH  019%=      5-min Rain = 0
KCO1 102018Z 27019KT 25/00 A2963 RMK A01 T02540001  RH  019%=      5-min Rain = 0
KCO1 102019Z 27016G24KT 25/00 A2963 RMK A01 T02530002  RH  019%=      5-min Rain = 0
KCO1 102020Z 26022KT 25/00 A2963 RMK A01 T02530002  RH  019%=      5-min Rain = 0
KCO1 102021Z 26023KT 26/00 A2963 RMK A01 T025500-0  RH  019%=      5-min Rain = 0
KCO1 102022Z 26024G32KT 26/M00 A2963 RMK A01 T02561001  RH  018%=      5-min Rain = 0
KCO1 102023Z 27022KT 26/M00 A2963 RMK A01 T02581001  RH  018%=      5-min Rain = 0
KCO1 102024Z 26019KT 26/00 A2963 RMK A01 T02590000  RH  018%=      5-min Rain = 0
KCO1 102025Z 27021KT 26/00 A2963 RMK A01 T02610001  RH  018%=      5-min Rain = 0
KCO1 102026Z 27021KT 26/00 A2963 RMK A01 T02610000  RH  018%=      5-min Rain = 0
KCO1 102027Z 27021G26KT 26/00 A2963 RMK A01 T02610001  RH  018%=      5-min Rain = 0
KCO1 102028Z 27022G27KT 26/00 A2963 RMK A01 T02620000  RH  018%=      5-min Rain = 0
KCO1 102029Z 27018G25KT 26/00 A2963 RMK A01 T02620000  RH  018%=      5-min Rain = 0
KCO1 102030Z 26022KT 26/M00 A2963 RMK A01 T02631001  RH  018%=      5-min Rain = 0
KCO1 102031Z 26016G23KT 26/M00 A2962 RMK A01 T02601002  RH  018%=      5-min Rain = 0
KCO1 102032Z 28019G28KT 26/00 A2962 RMK A01 T02600001  RH  018%=      5-min Rain = 0
KCO1 102033Z 26017KT 26/00 A2962 RMK A01 T02610000  RH  018%=      5-min Rain = 0
KCO1 102034Z 27020G25KT 26/00 A2962 RMK A01 T02630001  RH  018%=      5-min Rain = 0
KCO1 102035Z 28019G24KT 26/00 A2962 RMK A01 T02630001  RH  018%=      5-min Rain = 0
KCO1 102036Z 27019G24KT 26/00 A2962 RMK A01 T02630002  RH  018%=      5-min Rain = 0
KCO1 102037Z 28021KT 26/00 A2962 RMK A01 T02620002  RH  018%=      5-min Rain = 0
KCO1 102038Z 28017KT 26/00 A2962 RMK A01 T026000-0  RH  018%=      5-min Rain = 0
KCO1 102039Z 28017KT 26/M00 A2962 RMK A01 T02561001  RH  018%=      5-min Rain = 0
KCO1 102040Z 28023KT 25/M00 A2962 RMK A01 T02531001  RH  019%=      5-min Rain = 0
KCO1 102041Z 28019G24KT 25/M00 A2962 RMK A01 T02511001  RH  019%=      5-min Rain = 0
KCO1 102042Z 28024KT 25/M00 A2962 RMK A01 T02501001  RH  019%=      5-min Rain = 0
KCO1 102043Z 28023G28KT 25/M00 A2962 RMK A01 T02481002  RH  019%=      5-min Rain = 0
KCO1 102044Z 28020G28KT 25/M00 A2962 RMK A01 T02471002  RH  019%=      5-min Rain = 0
KCO1 102045Z 27023G29KT 25/M00 A2962 RMK A01 T02461002  RH  019%=      5-min Rain = 0
KCO1 102046Z 27022KT 25/M00 A2962 RMK A01 T02461002  RH  019%=      5-min Rain = 0
KCO1 102047Z 27018KT 25/M00 A2962 RMK A01 T02461001  RH  020%=      5-min Rain = 0
KCO1 102048Z 27021G26KT 25/M00 A2962 RMK A01 T02461001  RH  020%=      5-min Rain = 0
KCO1 102049Z 28020G25KT 25/M00 A2962 RMK A01 T02461001  RH  020%=      5-min Rain = 0
KCO1 102050Z 28020G30KT 25/00 A2963 RMK A01 T024600-0  RH  020%=      5-min Rain = 0
KCO1 102051Z 28024G30KT 25/00 A2962 RMK A01 T024500-0  RH  020%=      5-min Rain = 0
KCO1 102052Z 28023G28KT 24/00 A2963 RMK A01 T02440000  RH  020%=      5-min Rain = 0
KCO1 102053Z 28022G27KT 24/00 A2963 RMK A01 T024300-0  RH  020%=      5-min Rain = 0
KCO1 102054Z 28020G25KT 24/00 A2963 RMK A01 T02430000  RH  020%=      5-min Rain = 0
KCO1 102055Z 28020G25KT 24/00 A2963 RMK A01 T02430000  RH  020%=      5-min Rain = 0
KCO1 102056Z 28018G24KT 24/00 A2963 RMK A01 T02430000  RH  020%=      5-min Rain = 0
KCO1 102057Z 28019KT 24/00 A2963 RMK A01 T02430001  RH  020%=      5-min Rain = 0
KCO1 102058Z 29018KT 24/00 A2963 RMK A01 T02430001  RH  020%=      5-min Rain = 0
KCO1 102059Z 28016KT 24/00 A2963 RMK A01 T02430001  RH  020%=      5-min Rain = 0
KCO1 102100Z 27018KT 24/00 A2963 RMK A01 T02430001  RH  020%=      5-min Rain = 0
KCO1 102101Z 28018G26KT 24/00 A2963 RMK A01 T02430001  RH  020%=      5-min Rain = 0
KCO1 102102Z 28021G26KT 24/00 A2963 RMK A01 T02440002  RH  020%=      5-min Rain = 0
KCO1 102103Z 28022KT 24/00 A2963 RMK A01 T02430001  RH  020%=      5-min Rain = 0
KCO1 102104Z 28019G24KT 24/00 A2963 RMK A01 T02430001  RH  020%=      5-min Rain = 0
KCO1 102105Z 27021G26KT 24/00 A2963 RMK A01 T02420001  RH  020%=      5-min Rain = 0
KCO1 102106Z 28021G26KT 24/00 A2963 RMK A01 T02420002  RH  021%=      5-min Rain = 0
KCO1 102107Z 28022KT 24/00 A2963 RMK A01 T02420001  RH  020%=      5-min Rain = 0
KCO1 102108Z 28020KT 24/00 A2963 RMK A01 T02420002  RH  021%=      5-min Rain = 0
KCO1 102109Z 28018KT 24/00 A2963 RMK A01 T02420002  RH  021%=      5-min Rain = 0
KCO1 102110Z 28015G20KT 24/00 A2963 RMK A01 T02420002  RH  021%=      5-min Rain = 0
KCO1 102111Z 28016G21KT 24/00 A2963 RMK A01 T02420003  RH  021%=      5-min Rain = 0
KCO1 102112Z 28016G21KT 24/00 A2963 RMK A01 T02420003  RH  021%=      5-min Rain = 0
KCO1 102113Z 28016KT 24/00 A2963 RMK A01 T02420003  RH  021%=      5-min Rain = 0
KCO1 102114Z 28019KT 24/00 A2963 RMK A01 T02420003  RH  021%=      5-min Rain = 0
KCO1 102115Z 27018G23KT 24/00 A2963 RMK A01 T02420002  RH  021%=      5-min Rain = 0
KCO1 102116Z 27018KT 24/00 A2963 RMK A01 T02420002  RH  021%=      5-min Rain = 0
KCO1 102117Z 27018KT 24/00 A2964 RMK A01 T02420002  RH  021%=      5-min Rain = 0
KCO1 102118Z 27021KT 24/00 A2964 RMK A01 T02420002  RH  021%=      5-min Rain = 0
KCO1 102119Z 27019KT 24/00 A2964 RMK A01 T02420001  RH  020%=      5-min Rain = 0
KCO1 102120Z 28019G25KT 24/00 A2964 RMK A01 T02420001  RH  020%=      5-min Rain = 0
KCO1 102121Z 28020G26KT 24/00 A2964 RMK A01 T02420001  RH  020%=      5-min Rain = 0
KCO1 102122Z 28021G27KT 24/00 A2964 RMK A01 T02410001  RH  020%=      5-min Rain = 0
KCO1 102123Z 28017G24KT 24/M00 A2964 RMK A01 T02401001  RH  020%=      5-min Rain = 0
KCO1 102124Z 28022KT 24/M00 A2964 RMK A01 T02401001  RH  020%=      5-min Rain = 0
KCO1 102125Z 28016G21KT 24/M00 A2964 RMK A01 T02391001  RH  020%=      5-min Rain = 0
KCO1 102126Z 28021KT 24/M00 A2964 RMK A01 T02391002  RH  020%=      5-min Rain = 0
KCO1 102127Z 28021KT 24/M00 A2964 RMK A01 T02391002  RH  020%=      5-min Rain = 0
KCO1 102128Z 29020G25KT 24/M00 A2964 RMK A01 T02391002  RH  020%=      5-min Rain = 0
KCO1 102129Z 28020KT 24/M00 A2964 RMK A01 T02391001  RH  020%=      5-min Rain = 0
KCO1 102130Z 27021G26KT 24/00 A2964 RMK A01 T02410001  RH  020%=      5-min Rain = 0
KCO1 102131Z 28020G25KT 24/00 A2964 RMK A01 T02410001  RH  020%=      5-min Rain = 0
KCO1 102132Z 28023G29KT 24/00 A2964 RMK A01 T02420001  RH  020%=      5-min Rain = 0
KCO1 102133Z 28024G32KT 24/00 A2964 RMK A01 T02430001  RH  020%=      5-min Rain = 0
KCO1 102134Z 28022G30KT 24/00 A2964 RMK A01 T024200-0  RH  020%=      5-min Rain = 0
KCO1 102135Z 27020G25KT 24/00 A2965 RMK A01 T024100-0  RH  020%=      5-min Rain = 0
KCO1 102136Z 28020G28KT 24/00 A2965 RMK A01 T02400001  RH  021%=      5-min Rain = 0
KCO1 102137Z 28026G32KT 24/00 A2964 RMK A01 T02390000  RH  021%=      5-min Rain = 0
KCO1 102138Z 28024KT 24/M00 A2965 RMK A01 T02381001  RH  021%=      5-min Rain = 0
KCO1 102139Z 28027KT 24/M00 A2965 RMK A01 T02371001  RH  021%=      5-min Rain = 0
KCO1 102140Z 27026G34KT 24/M00 A2965 RMK A01 T02361001  RH  021%=      5-min Rain = 0
KCO1 102141Z 29035G42KT 24/01 A2966 RMK A01 T02350006  RH  022%=      5-min Rain = 0
KCO1 102142Z 29036G45KT 22/02 A2966 RMK A01 T02240023  RH  027%=      5-min Rain = 0
KCO1 102143Z 29035G44KT 21/03 A2966 RMK A01 T02140029  RH  029%=      5-min Rain = 0
KCO1 102144Z 29031G42KT 21/03 A2967 RMK A01 T02090031  RH  031%=      5-min Rain = 0
KCO1 102145Z 29039G47KT 21/03 A2968 RMK A01 T02060032  RH  032%=      5-min Rain = 0
KCO1 102146Z 29038G44KT 20/03 A2967 RMK A01 T02020033  RH  033%=      5-min Rain = 0
KCO1 102147Z 29033G43KT 20/03 A2968 RMK A01 T01990033  RH  033%=      5-min Rain = 0
KCO1 102148Z 29035G46KT 20/03 A2968 RMK A01 T01970033  RH  034%=      5-min Rain = 0
KCO1 102149Z 30030G40KT 20/03 A2968 RMK A01 T01960033  RH  034%=      5-min Rain = 0
KCO1 102150Z 29029G34KT 20/03 A2969 RMK A01 T01950033  RH  034%=      5-min Rain = 0
KCO1 102151Z 28028G34KT 19/03 A2969 RMK A01 T01940034  RH  034%=      5-min Rain = 0
KCO1 102152Z 28031G36KT 19/04 A297 RMK A01 T01930035  RH  035%=      5-min Rain = 0
KCO1 102153Z 28035G45KT 19/04 A297 RMK A01 T01910035  RH  036%=      5-min Rain = 0
KCO1 102154Z 28031G41KT 19/03 A297 RMK A01 T01870033  RH  036%=      5-min Rain = 0
KCO1 102155Z 28033G41KT 18/03 A297 RMK A01 T01840032  RH  036%=      5-min Rain = 0
KCO1 102156Z 29031G38KT 18/03 A297 RMK A01 T01810033  RH  037%=      5-min Rain = 0
KCO1 102157Z 29035G44KT 18/03 A297 RMK A01 T01790034  RH  038%=      5-min Rain = 0
KCO1 102158Z 29032G42KT 18/03 A2971 RMK A01 T01760033  RH  038%=      5-min Rain = 0
KCO1 102159Z 29034G43KT 17/03 A2971 RMK A01 T01740034  RH  039%=      5-min Rain = 0
KCO1 102200Z 29037G46KT 17/03 A2972 RMK A01 T01710033  RH  040%=      5-min Rain = 0
KCO1 102201Z 29043G49KT 17/03 A2971 RMK A01 T01680034  RH  041%=      5-min Rain = 0
KCO1 102202Z 29036G46KT 16/04 A2972 RMK A01 T01640036  RH  043%=      5-min Rain = 0
KCO1 102203Z 29033G39KT 16/04 A2972 RMK A01 T01610036  RH  043%=      5-min Rain = 0
KCO1 102204Z 29034G41KT 16/04 A2972 RMK A01 T01600036  RH  044%=      5-min Rain = 0
KCO1 102205Z 30032G38KT 16/04 A2972 RMK A01 T01580037  RH  044%=      5-min Rain = 0
KCO1 102206Z 29036G48KT 16/04 A2972 RMK A01 T01570036  RH  044%=      5-min Rain = 0
KCO1 102207Z 29036G42KT 16/03 A2972 RMK A01 T01570034  RH  044%=      5-min Rain = 0
KCO1 102208Z 29037G47KT 16/03 A2971 RMK A01 T01570033  RH  044%=      5-min Rain = 0
KCO1 102209Z 30037G46KT 16/03 A2972 RMK A01 T01560032  RH  043%=      5-min Rain = 0
KCO1 102210Z 30037G44KT 16/03 A2972 RMK A01 T01550034  RH  044%=      5-min Rain = 0
KCO1 102211Z 30031G37KT 15/03 A2973 RMK A01 T01530034  RH  045%=      5-min Rain = 0
KCO1 102212Z 30034KT 15/03 A2973 RMK A01 T01530032  RH  044%=      5-min Rain = 0
KCO1 102213Z 30033G41KT 15/03 A2973 RMK A01 T01530031  RH  044%=      5-min Rain = 0
KCO1 102214Z 30037G43KT 15/03 A2973 RMK A01 T01530029  RH  044%=      5-min Rain = 0
KCO1 102215Z 30036G43KT 15/03 A2973 RMK A01 T01520027  RH  043%=      5-min Rain = 0
KCO1 102216Z 30035G45KT 15/03 A2973 RMK A01 T01510027  RH  043%=      5-min Rain = 0
KCO1 102217Z 29035G46KT 15/03 A2974 RMK A01 T01500026  RH  043%=      5-min Rain = 0
KCO1 102218Z 30033G43KT 15/03 A2974 RMK A01 T01490026  RH  044%=      5-min Rain = 0
KCO1 102219Z 30030G39KT 15/03 A2974 RMK A01 T01480027  RH  044%=      5-min Rain = 0
KCO1 102220Z 30032G37KT 15/03 A2974 RMK A01 T01470027  RH  044%=      5-min Rain = 0
KCO1 102221Z 30026G34KT 15/03 A2974 RMK A01 T01460027  RH  045%=      5-min Rain = 0
KCO1 102222Z 30028G37KT 15/03 A2975 RMK A01 T01450028  RH  045%=      5-min Rain = 0
KCO1 102223Z 29029G38KT 15/03 A2976 RMK A01 T01450029  RH  045%=      5-min Rain = 0
KCO1 102224Z 29030G40KT 15/03 A2976 RMK A01 T01450028  RH  045%=      5-min Rain = 0
KCO1 102225Z 29027G35KT 15/03 A2977 RMK A01 T01450029  RH  045%=      5-min Rain = 0
KCO1 102226Z 29031G41KT 15/03 A2977 RMK A01 T01450029  RH  045%=      5-min Rain = 0
KCO1 102227Z 30029G37KT 15/03 A2976 RMK A01 T01450028  RH  045%=      5-min Rain = 0
KCO1 102228Z 30033G41KT 14/03 A2975 RMK A01 T01430029  RH  046%=      5-min Rain = 0
KCO1 102229Z 30028G39KT 14/03 A2975 RMK A01 T01390034  RH  049%=      5-min Rain = 0
KCO1 102230Z 30030G36KT 13/04 A2975 RMK A01 T01330042  RH  054%=      5-min Rain = 0
KCO1 102231Z 29022G29KT 13/05 A2975 RMK A01 T01280048  RH  058%=      5-min Rain = 0
KCO1 102232Z 30027G33KT 13/05 A2975 RMK A01 T01250051  RH  061%=      5-min Rain = 0
KCO1 102233Z 29028G33KT 12/05 A2975 RMK A01 T01240047  RH  060%=      5-min Rain = 0
KCO1 102234Z 29027G32KT 12/05 A2976 RMK A01 T01230046  RH  059%=      5-min Rain = 0
KCO1 102235Z 29031G36KT 12/04 A2975 RMK A01 T01240043  RH  058%=      5-min Rain = 0
KCO1 102236Z 29024G30KT 13/04 A2975 RMK A01 T01250042  RH  057%=      5-min Rain = 0
KCO1 102237Z 29025G33KT 13/04 A2975 RMK A01 T01260043  RH  057%=      5-min Rain = 0
KCO1 102238Z 29027G33KT 13/04 A2975 RMK A01 T01260042  RH  057%=      5-min Rain = 0
KCO1 102239Z 30022G29KT 13/04 A2975 RMK A01 T01280043  RH  056%=      5-min Rain = 0
KCO1 102240Z 30026G33KT 13/04 A2975 RMK A01 T01300041  RH  055%=      5-min Rain = 0
KCO1 102241Z 30027G32KT 13/04 A2975 RMK A01 T01310040  RH  054%=      5-min Rain = 0
KCO1 102242Z 29026G32KT 13/04 A2975 RMK A01 T01320038  RH  053%=      5-min Rain = 0
KCO1 102243Z 29021KT 13/04 A2975 RMK A01 T01340039  RH  053%=      5-min Rain = 0
KCO1 102244Z 30026G31KT 14/04 A2975 RMK A01 T01350039  RH  052%=      5-min Rain = 0
KCO1 102245Z 29023G30KT 14/04 A2975 RMK A01 T01350038  RH  052%=      5-min Rain = 0
KCO1 102246Z 29021G27KT 14/04 A2975 RMK A01 T01350037  RH  051%=      5-min Rain = 0
KCO1 102247Z 29023G29KT 14/04 A2975 RMK A01 T01350038  RH  052%=      5-min Rain = 0
KCO1 102248Z 29023G33KT 14/04 A2975 RMK A01 T01350036  RH  051%=      5-min Rain = 0
KCO1 102249Z 29021G27KT 13/04 A2975 RMK A01 T01340036  RH  051%=      5-min Rain = 0
KCO1 102250Z 29022G27KT 13/04 A2975 RMK A01 T01340036  RH  051%=      5-min Rain = 0
KCO1 102251Z 29022G32KT 13/04 A2975 RMK A01 T01340035  RH  051%=      5-min Rain = 0
KCO1 102252Z 29025G30KT 14/03 A2975 RMK A01 T01350034  RH  051%=      5-min Rain = 0
KCO1 102253Z 29023G28KT 13/03 A2975 RMK A01 T01340034  RH  051%=      5-min Rain = 0
KCO1 102254Z 29023G29KT 13/03 A2975 RMK A01 T01340034  RH  051%=      5-min Rain = 0
KCO1 102255Z 28021G30KT 14/04 A2975 RMK A01 T01350035  RH  051%=      5-min Rain = 0
KCO1 102256Z 29023G28KT 14/04 A2975 RMK A01 T01350035  RH  051%=      5-min Rain = 0
KCO1 102257Z 29023G28KT 14/03 A2975 RMK A01 T01350034  RH  050%=      5-min Rain = 0
KCO1 102258Z 28021G27KT 14/04 A2975 RMK A01 T01360035  RH  050%=      5-min Rain = 0
KCO1 102259Z 28021KT 14/04 A2975 RMK A01 T01360035  RH  050%=      5-min Rain = 0
KCO1 102300Z 28020KT 14/04 A2975 RMK A01 T01370035  RH  050%=      5-min Rain = 0
KCO1 102301Z 28024G29KT 14/04 A2975 RMK A01 T01380036  RH  050%=      5-min Rain = 0
KCO1 102302Z 27022G28KT 14/04 A2975 RMK A01 T01390035  RH  050%=      5-min Rain = 0
KCO1 102303Z 28025KT 14/04 A2975 RMK A01 T01390035  RH  049%=      5-min Rain = 0
KCO1 102304Z 27024G31KT 14/03 A2975 RMK A01 T01400034  RH  049%=      5-min Rain = 0
KCO1 102305Z 28019G25KT 14/03 A2975 RMK A01 T01410034  RH  048%=      5-min Rain = 0
KCO1 102306Z 27020G27KT 14/03 A2975 RMK A01 T01420034  RH  048%=      5-min Rain = 0
KCO1 102307Z 28021G27KT 14/03 A2975 RMK A01 T01420034  RH  048%=      5-min Rain = 0
KCO1 102308Z 27023G31KT 14/03 A2975 RMK A01 T01430034  RH  048%=      5-min Rain = 0
KCO1 102309Z 27024KT 14/03 A2975 RMK A01 T01430032  RH  047%=      5-min Rain = 0
KCO1 102310Z 27024KT 14/03 A2975 RMK A01 T01430032  RH  047%=      5-min Rain = 0
KCO1 102311Z 27023G30KT 14/03 A2975 RMK A01 T01430031  RH  047%=      5-min Rain = 0
KCO1 102312Z 27022G29KT 14/03 A2975 RMK A01 T01440031  RH  046%=      5-min Rain = 0
KCO1 102313Z 27021G26KT 14/03 A2975 RMK A01 T01440030  RH  046%=      5-min Rain = 0
KCO1 102314Z 27019KT 15/03 A2975 RMK A01 T01450030  RH  046%=      5-min Rain = 0
KCO1 102315Z 27022G28KT 15/03 A2975 RMK A01 T01450030  RH  046%=      5-min Rain = 0
KCO1 102316Z 28025G31KT 15/03 A2975 RMK A01 T01450028  RH  045%=      5-min Rain = 0
KCO1 102317Z 27023G32KT 15/03 A2975 RMK A01 T01460027  RH  044%=      5-min Rain = 0
KCO1 102318Z 27022G29KT 15/03 A2975 RMK A01 T01470026  RH  044%=      5-min Rain = 0
KCO1 102319Z 27020G27KT 15/03 A2975 RMK A01 T01480026  RH  044%=      5-min Rain = 0
KCO1 102320Z 28027G33KT 15/03 A2975 RMK A01 T01490025  RH  043%=      5-min Rain = 0
KCO1 102321Z 28024G31KT 15/02 A2975 RMK A01 T01490024  RH  043%=      5-min Rain = 0
KCO1 102322Z 28021G26KT 15/03 A2975 RMK A01 T01500025  RH  043%=      5-min Rain = 0
KCO1 102323Z 27016KT 15/03 A2975 RMK A01 T01500025  RH  043%=      5-min Rain = 0
KCO1 102324Z 28023G29KT 15/03 A2975 RMK A01 T01500025  RH  043%=      5-min Rain = 0
KCO1 102325Z 28023G29KT 15/03 A2975 RMK A01 T01510025  RH  043%=      5-min Rain = 0
KCO1 102326Z 27027G33KT 15/02 A2975 RMK A01 T01510024  RH  042%=      5-min Rain = 0
KCO1 102327Z 27025G32KT 15/02 A2975 RMK A01 T01520024  RH  042%=      5-min Rain = 0
KCO1 102328Z 28025G32KT 15/02 A2975 RMK A01 T01510024  RH  042%=      5-min Rain = 0
KCO1 102329Z 27023G29KT 15/02 A2975 RMK A01 T01510024  RH  042%=      5-min Rain = 0
KCO1 102330Z 27023G29KT 15/03 A2975 RMK A01 T01510025  RH  043%=      5-min Rain = 0
KCO1 102331Z 28023G30KT 15/03 A2975 RMK A01 T01510025  RH  043%=      5-min Rain = 0
KCO1 102332Z 27024G31KT 15/03 A2975 RMK A01 T01510025  RH  043%=      5-min Rain = 0
KCO1 102333Z 28021G29KT 15/03 A2975 RMK A01 T01510025  RH  043%=      5-min Rain = 0
KCO1 102334Z 28025KT 15/03 A2975 RMK A01 T01510025  RH  043%=      5-min Rain = 0
KCO1 102335Z 28022KT 15/03 A2975 RMK A01 T01510026  RH  043%=      5-min Rain = 0
KCO1 102336Z 28021G28KT 15/03 A2975 RMK A01 T01500026  RH  043%=      5-min Rain = 0
KCO1 102337Z 28022G28KT 15/03 A2975 RMK A01 T01500026  RH  043%=      5-min Rain = 0
KCO1 102338Z 28021KT 15/03 A2975 RMK A01 T01490026  RH  043%=      5-min Rain = 0
KCO1 102339Z 27022G27KT 15/03 A2975 RMK A01 T01490026  RH  044%=      5-min Rain = 0
KCO1 102340Z 27023G28KT 15/03 A2975 RMK A01 T01490026  RH  044%=      5-min Rain = 0
KCO1 102341Z 28022KT 15/03 A2975 RMK A01 T01490026  RH  044%=      5-min Rain = 0
KCO1 102342Z 27019KT 15/03 A2975 RMK A01 T01490026  RH  044%=      5-min Rain = 0
KCO1 102343Z 28020G25KT 15/03 A2975 RMK A01 T01490026  RH  044%=      5-min Rain = 0
KCO1 102344Z 28020KT 15/03 A2975 RMK A01 T01490026  RH  044%=      5-min Rain = 0
KCO1 102345Z 28019G24KT 15/03 A2975 RMK A01 T01480026  RH  044%=      5-min Rain = 0
KCO1 102346Z 27021G29KT 15/03 A2975 RMK A01 T01490026  RH  044%=      5-min Rain = 0
KCO1 102347Z 28021G29KT 15/03 A2975 RMK A01 T01480026  RH  044%=      5-min Rain = 0
KCO1 102348Z 28022KT 15/03 A2975 RMK A01 T01480026  RH  044%=      5-min Rain = 0
KCO1 102349Z 28022G28KT 15/03 A2975 RMK A01 T01480025  RH  044%=      5-min Rain = 0
KCO1 102350Z 28022KT 15/03 A2975 RMK A01 T01480026  RH  044%=      5-min Rain = 0
KCO1 102351Z 28023G29KT 15/03 A2975 RMK A01 T01480026  RH  044%=      5-min Rain = 0
KCO1 102352Z 28019KT 15/03 A2975 RMK A01 T01480025  RH  044%=      5-min Rain = 0
KCO1 102353Z 28019KT 15/03 A2975 RMK A01 T01470025  RH  044%=      5-min Rain = 0
KCO1 102354Z 28021G29KT 15/03 A2975 RMK A01 T01470025  RH  044%=      5-min Rain = 0
KCO1 102355Z 28021KT 15/03 A2975 RMK A01 T01460025  RH  044%=      5-min Rain = 0
KCO1 102356Z 28021KT 15/03 A2975 RMK A01 T01460025  RH  044%=      5-min Rain = 0
KCO1 102357Z 28020KT 15/03 A2975 RMK A01 T01470025  RH  044%=      5-min Rain = 0
KCO1 102358Z 28021G26KT 15/03 A2975 RMK A01 T01470025  RH  044%=      5-min Rain = 0
KCO1 102359Z 28023G29KT 15/03 A2974 RMK A01 T01470025  RH  044%=      5-min Rain = 0
KCO1 110000Z 28021G26KT 15/03 A2974 RMK A01 T01460025  RH  044%=      5-min Rain = 0
KCO1 110001Z 28022G27KT 15/03 A2975 RMK A01 T01470025  RH  044%=      5-min Rain = 0
KCO1 110002Z 28021G27KT 15/03 A2975 RMK A01 T01460025  RH  044%=      5-min Rain = 0
KCO1 110003Z 28019G26KT 15/03 A2975 RMK A01 T01460025  RH  044%=      5-min Rain = 0
KCO1 110004Z 28016KT 15/03 A2975 RMK A01 T01450025  RH  044%=      5-min Rain = 0
KCO1 110005Z 28017KT 15/03 A2975 RMK A01 T01450025  RH  044%=      5-min Rain = 0
KCO1 110006Z 28016G23KT 14/03 A2975 RMK A01 T01440025  RH  045%=      5-min Rain = 0
KCO1 110007Z 29015G20KT 14/03 A2975 RMK A01 T01440025  RH  045%=      5-min Rain = 0
KCO1 110008Z 28019KT 14/03 A2975 RMK A01 T01430025  RH  045%=      5-min Rain = 0
KCO1 110009Z 28019G25KT 14/03 A2975 RMK A01 T01430025  RH  045%=      5-min Rain = 0
KCO1 110010Z 28021KT 14/03 A2975 RMK A01 T01430026  RH  045%=      5-min Rain = 0
KCO1 110011Z 29019G25KT 14/03 A2974 RMK A01 T01430025  RH  045%=      5-min Rain = 0
KCO1 110012Z 28018G24KT 14/03 A2974 RMK A01 T01440026  RH  045%=      5-min Rain = 0
KCO1 110013Z 28015KT 14/03 A2975 RMK A01 T01430025  RH  045%=      5-min Rain = 0
KCO1 110014Z 28018G23KT 14/03 A2975 RMK A01 T01420025  RH  045%=      5-min Rain = 0
KCO1 110015Z 28018G24KT 14/03 A2975 RMK A01 T01420025  RH  045%=      5-min Rain = 0
KCO1 110016Z 28016G21KT 14/03 A2975 RMK A01 T01420026  RH  045%=      5-min Rain = 0
KCO1 110017Z 29016KT 14/03 A2975 RMK A01 T01420025  RH  045%=      5-min Rain = 0
KCO1 110018Z 29018G23KT 14/03 A2975 RMK A01 T01410026  RH  046%=      5-min Rain = 0
KCO1 110019Z 28020KT 14/03 A2975 RMK A01 T01410026  RH  046%=      5-min Rain = 0
KCO1 110020Z 28019KT 14/03 A2975 RMK A01 T01410026  RH  046%=      5-min Rain = 0
KCO1 110021Z 28020G25KT 14/03 A2975 RMK A01 T01410025  RH  046%=      5-min Rain = 0
KCO1 110022Z 28016KT 14/03 A2975 RMK A01 T01410025  RH  046%=      5-min Rain = 0
KCO1 110023Z 28019KT 14/03 A2975 RMK A01 T01410025  RH  046%=      5-min Rain = 0
KCO1 110024Z 28017G23KT 14/03 A2975 RMK A01 T01410026  RH  046%=      5-min Rain = 0
KCO1 110025Z 29019KT 14/03 A2974 RMK A01 T01410026  RH  046%=      5-min Rain = 0
KCO1 110026Z 29020KT 14/03 A2975 RMK A01 T01410026  RH  046%=      5-min Rain = 0
KCO1 110027Z 29020KT 14/03 A2975 RMK A01 T01410025  RH  046%=      5-min Rain = 0
KCO1 110028Z 28019G24KT 14/03 A2975 RMK A01 T01410025  RH  046%=      5-min Rain = 0
KCO1 110029Z 28018G23KT 14/03 A2975 RMK A01 T01410025  RH  046%=      5-min Rain = 0
KCO1 110030Z 28019KT 14/03 A2975 RMK A01 T01410025  RH  046%=      5-min Rain = 0
KCO1 110031Z 28017KT 14/03 A2975 RMK A01 T01400025  RH  046%=      5-min Rain = 0
KCO1 110032Z 28017KT 14/03 A2975 RMK A01 T01400025  RH  046%=      5-min Rain = 0
KCO1 110033Z 28016KT 14/03 A2975 RMK A01 T01400025  RH  046%=      5-min Rain = 0
KCO1 110034Z 28018KT 14/03 A2975 RMK A01 T01400025  RH  046%=      5-min Rain = 0
KCO1 110035Z 29015KT 14/03 A2976 RMK A01 T01400025  RH  046%=      5-min Rain = 0
KCO1 110036Z 28017KT 14/03 A2975 RMK A01 T01400025  RH  046%=      5-min Rain = 0
KCO1 110037Z 28017KT 14/03 A2976 RMK A01 T01400025  RH  046%=      5-min Rain = 0
KCO1 110038Z 28014KT 14/03 A2976 RMK A01 T01390025  RH  046%=      5-min Rain = 0
KCO1 110039Z 28015KT 14/02 A2976 RMK A01 T01390024  RH  046%=      5-min Rain = 0
KCO1 110040Z 28013KT 14/02 A2976 RMK A01 T01380024  RH  046%=      5-min Rain = 0
KCO1 110041Z 28013KT 14/02 A2976 RMK A01 T01380024  RH  046%=      5-min Rain = 0
KCO1 110042Z 28015KT 14/02 A2976 RMK A01 T01370024  RH  046%=      5-min Rain = 0
KCO1 110043Z 29016KT 14/02 A2976 RMK A01 T01370024  RH  046%=      5-min Rain = 0
KCO1 110044Z 29016KT 14/02 A2976 RMK A01 T01380023  RH  046%=      5-min Rain = 0
KCO1 110045Z 29015KT 14/02 A2976 RMK A01 T01390023  RH  046%=      5-min Rain = 0
KCO1 110046Z 29015KT 14/02 A2976 RMK A01 T01390024  RH  046%=      5-min Rain = 0
KCO1 110047Z 29015G20KT 14/02 A2976 RMK A01 T01390023  RH  046%=      5-min Rain = 0
KCO1 110048Z 29017KT 14/02 A2976 RMK A01 T01390023  RH  046%=      5-min Rain = 0
KCO1 110049Z 29016KT 14/02 A2976 RMK A01 T01390023  RH  045%=      5-min Rain = 0
KCO1 110050Z 29014G21KT 14/02 A2976 RMK A01 T01390023  RH  045%=      5-min Rain = 0
KCO1 110051Z 29014KT 14/02 A2976 RMK A01 T01390023  RH  045%=      5-min Rain = 0
KCO1 110052Z 29014KT 14/02 A2976 RMK A01 T01380023  RH  046%=      5-min Rain = 0
KCO1 110053Z 29014KT 14/02 A2976 RMK A01 T01380023  RH  046%=      5-min Rain = 0
KCO1 110054Z 29015KT 14/02 A2976 RMK A01 T01380023  RH  046%=      5-min Rain = 0
KCO1 110055Z 29014KT 14/02 A2976 RMK A01 T01380023  RH  046%=      5-min Rain = 0
KCO1 110056Z 28014KT 14/02 A2976 RMK A01 T01380023  RH  046%=      5-min Rain = 0
KCO1 110057Z 29015KT 14/02 A2976 RMK A01 T01370022  RH  046%=      5-min Rain = 0
KCO1 110058Z 29015KT 14/02 A2976 RMK A01 T01370022  RH  046%=      5-min Rain = 0
KCO1 110059Z 29016KT 14/02 A2976 RMK A01 T01370022  RH  046%=      5-min Rain = 0
KCO1 110100Z 29016KT 14/02 A2976 RMK A01 T01370022  RH  046%=      5-min Rain = 0
KCO1 110101Z 29015KT 14/02 A2976 RMK A01 T01370022  RH  046%=      5-min Rain = 0
KCO1 110102Z 29012KT 14/02 A2976 RMK A01 T01370022  RH  046%=      5-min Rain = 0
KCO1 110103Z 29014KT 14/02 A2976 RMK A01 T01360022  RH  046%=      5-min Rain = 0
KCO1 110104Z 29014KT 14/02 A2976 RMK A01 T01360022  RH  046%=      5-min Rain = 0
KCO1 110105Z 29013G18KT 14/02 A2976 RMK A01 T01360022  RH  046%=      5-min Rain = 0
KCO1 110106Z 29014KT 14/02 A2976 RMK A01 T01350022  RH  046%=      5-min Rain = 0
KCO1 110107Z 29015KT 14/02 A2976 RMK A01 T01350022  RH  046%=      5-min Rain = 0
KCO1 110108Z 29014KT 14/02 A2976 RMK A01 T01350022  RH  046%=      5-min Rain = 0
KCO1 110109Z 29015KT 13/02 A2976 RMK A01 T01340022  RH  046%=      5-min Rain = 0
KCO1 110110Z 29014KT 13/02 A2976 RMK A01 T01330021  RH  046%=      5-min Rain = 0
KCO1 110111Z 29013G18KT 13/02 A2976 RMK A01 T01330021  RH  046%=      5-min Rain = 0
KCO1 110112Z 29014KT 13/02 A2977 RMK A01 T01330021  RH  046%=      5-min Rain = 0
KCO1 110113Z 28012KT 13/02 A2977 RMK A01 T01330020  RH  046%=      5-min Rain = 0
KCO1 110114Z 28012KT 13/02 A2977 RMK A01 T01330020  RH  046%=      5-min Rain = 0
KCO1 110115Z 28013KT 13/02 A2977 RMK A01 T01320019  RH  046%=      5-min Rain = 0
KCO1 110116Z 28011KT 13/02 A2977 RMK A01 T01320019  RH  046%=      5-min Rain = 0
KCO1 110117Z 28012KT 13/02 A2977 RMK A01 T01320019  RH  046%=      5-min Rain = 0
KCO1 110118Z 28012KT 13/02 A2977 RMK A01 T01320019  RH  046%=      5-min Rain = 0
KCO1 110119Z 28013KT 13/02 A2977 RMK A01 T01320019  RH  046%=      5-min Rain = 0
KCO1 110120Z 28012KT 13/02 A2977 RMK A01 T01320018  RH  046%=      5-min Rain = 0
KCO1 110121Z 28013KT 13/02 A2977 RMK A01 T01320018  RH  046%=      5-min Rain = 0
KCO1 110122Z 28012KT 13/02 A2977 RMK A01 T01330018  RH  046%=      5-min Rain = 0
KCO1 110123Z 28011KT 13/02 A2977 RMK A01 T01330017  RH  045%=      5-min Rain = 0
KCO1 110124Z 28012KT 13/02 A2978 RMK A01 T01340018  RH  045%=      5-min Rain = 0
KCO1 110125Z 28011KT 13/02 A2978 RMK A01 T01340017  RH  045%=      5-min Rain = 0
KCO1 110126Z 28011KT 13/02 A2978 RMK A01 T01340017  RH  045%=      5-min Rain = 0
KCO1 110127Z 28010KT 14/02 A2978 RMK A01 T01350017  RH  045%=      5-min Rain = 0
KCO1 110128Z 28011KT 13/02 A2978 RMK A01 T01340017  RH  045%=      5-min Rain = 0
KCO1 110129Z 28011KT 13/02 A2978 RMK A01 T01340017  RH  045%=      5-min Rain = 0
KCO1 110130Z 28011KT 13/02 A2978 RMK A01 T01340017  RH  045%=      5-min Rain = 0
KCO1 110131Z 28010KT 13/02 A2978 RMK A01 T01340017  RH  045%=      5-min Rain = 0
KCO1 110132Z 28010KT 13/02 A2978 RMK A01 T01340017  RH  045%=      5-min Rain = 0
KCO1 110133Z 28010KT 13/02 A2978 RMK A01 T01340017  RH  045%=      5-min Rain = 0
KCO1 110134Z 27010KT 13/02 A2978 RMK A01 T01330017  RH  045%=      5-min Rain = 0
KCO1 110135Z 27010KT 13/02 A2978 RMK A01 T01320016  RH  045%=      5-min Rain = 0
KCO1 110136Z 27009KT 13/02 A2979 RMK A01 T01310016  RH  046%=      5-min Rain = 0
KCO1 110137Z 27009KT 13/02 A2979 RMK A01 T01310016  RH  046%=      5-min Rain = 0
KCO1 110138Z 27009KT 13/02 A2979 RMK A01 T01300016  RH  046%=      5-min Rain = 0
KCO1 110139Z 27009KT 13/02 A2979 RMK A01 T01290016  RH  046%=      5-min Rain = 0
KCO1 110140Z 27009KT 13/02 A2979 RMK A01 T01290016  RH  046%=      5-min Rain = 0
KCO1 110141Z 27009KT 13/02 A2979 RMK A01 T01290016  RH  046%=      5-min Rain = 0
KCO1 110142Z 27009KT 13/02 A2979 RMK A01 T01290016  RH  046%=      5-min Rain = 0
KCO1 110143Z 27009KT 13/02 A2979 RMK A01 T01280016  RH  046%=      5-min Rain = 0
KCO1 110144Z 27009KT 13/02 A2979 RMK A01 T01280016  RH  047%=      5-min Rain = 0
KCO1 110145Z 26010KT 13/02 A2979 RMK A01 T01270016  RH  047%=      5-min Rain = 0
KCO1 110146Z 27010KT 13/02 A2979 RMK A01 T01280016  RH  047%=      5-min Rain = 0
KCO1 110147Z 27009KT 13/02 A2979 RMK A01 T01280016  RH  046%=      5-min Rain = 0
KCO1 110148Z 26010KT 13/02 A2979 RMK A01 T01280016  RH  046%=      5-min Rain = 0
KCO1 110149Z 26010KT 13/02 A2979 RMK A01 T01280016  RH  046%=      5-min Rain = 0
KCO1 110150Z 27009KT 13/02 A2979 RMK A01 T01280016  RH  047%=      5-min Rain = 0
KCO1 110151Z 27009KT 13/02 A2979 RMK A01 T01280016  RH  047%=      5-min Rain = 0
KCO1 110152Z 26008KT 13/02 A2979 RMK A01 T01280016  RH  046%=      5-min Rain = 0
KCO1 110153Z 26008KT 13/02 A2979 RMK A01 T01280016  RH  046%=      5-min Rain = 0
KCO1 110154Z 26008KT 13/02 A2979 RMK A01 T01280016  RH  046%=      5-min Rain = 0
KCO1 110155Z 26010KT 13/02 A2979 RMK A01 T01280016  RH  046%=      5-min Rain = 0
KCO1 110156Z 25008KT 13/02 A2979 RMK A01 T01300016  RH  046%=      5-min Rain = 0
KCO1 110157Z 25008KT 13/02 A298 RMK A01 T01300016  RH  046%=      5-min Rain = 0
KCO1 110158Z 25008KT 13/02 A298 RMK A01 T01280015  RH  046%=      5-min Rain = 0
KCO1 110159Z 25009KT 13/01 A298 RMK A01 T01270014  RH  046%=      5-min Rain = 0
KCO1 110200Z 25009KT 13/01 A298 RMK A01 T01260014  RH  047%=      5-min Rain = 0
KCO1 110201Z 25009KT 13/01 A298 RMK A01 T01250014  RH  047%=      5-min Rain = 0
KCO1 110202Z 25010KT 12/01 A2979 RMK A01 T01230014  RH  047%=      5-min Rain = 0
KCO1 110203Z 25010KT 12/01 A2979 RMK A01 T01210014  RH  048%=      5-min Rain = 0
KCO1 110204Z 25010KT 12/01 A298 RMK A01 T01200014  RH  048%=      5-min Rain = 0
KCO1 110205Z 25009KT 12/01 A298 RMK A01 T01200014  RH  048%=      5-min Rain = 0
KCO1 110206Z 25009KT 12/01 A298 RMK A01 T01200014  RH  048%=      5-min Rain = 0
KCO1 110207Z 24009KT 12/01 A298 RMK A01 T01200014  RH  048%=      5-min Rain = 0
KCO1 110208Z 25009KT 12/02 A298 RMK A01 T01210015  RH  048%=      5-min Rain = 0
KCO1 110209Z 25009KT 12/02 A298 RMK A01 T01230015  RH  048%=      5-min Rain = 0
KCO1 110210Z 25010KT 12/01 A298 RMK A01 T01230014  RH  047%=      5-min Rain = 0
KCO1 110211Z 25009KT 12/02 A298 RMK A01 T01240015  RH  047%=      5-min Rain = 0
KCO1 110212Z 25009KT 13/01 A298 RMK A01 T01250014  RH  047%=      5-min Rain = 0
KCO1 110213Z 25010KT 13/01 A298 RMK A01 T01260014  RH  047%=      5-min Rain = 0
KCO1 110214Z 25010KT 13/01 A298 RMK A01 T01250014  RH  047%=      5-min Rain = 0
KCO1 110215Z 24009KT 13/01 A298 RMK A01 T01250014  RH  047%=      5-min Rain = 0
KCO1 110216Z 22010KT 13/01 A298 RMK A01 T01250013  RH  046%=      5-min Rain = 0
KCO1 110217Z 22010KT 12/01 A298 RMK A01 T01230013  RH  047%=      5-min Rain = 0
KCO1 110218Z 22008KT 12/01 A298 RMK A01 T01200011  RH  047%=      5-min Rain = 0
KCO1 110219Z 23007KT 12/01 A298 RMK A01 T01170011  RH  048%=      5-min Rain = 0
KCO1 110220Z 23007KT 12/01 A298 RMK A01 T01150011  RH  049%=      5-min Rain = 0
KCO1 110221Z 23006KT 11/01 A298 RMK A01 T01140011  RH  049%=      5-min Rain = 0
KCO1 110222Z 23007KT 11/01 A298 RMK A01 T01120011  RH  050%=      5-min Rain = 0
KCO1 110223Z 23008KT 11/01 A298 RMK A01 T01110011  RH  050%=      5-min Rain = 0
KCO1 110224Z 23008KT 11/01 A298 RMK A01 T01100011  RH  050%=      5-min Rain = 0
KCO1 110225Z 22007KT 11/01 A2979 RMK A01 T01100011  RH  051%=      5-min Rain = 0
KCO1 110226Z 22007KT 11/01 A2979 RMK A01 T01090011  RH  051%=      5-min Rain = 0
KCO1 110227Z 22008KT 11/01 A2979 RMK A01 T01080011  RH  051%=      5-min Rain = 0
KCO1 110228Z 22008KT 11/01 A2979 RMK A01 T01070011  RH  051%=      5-min Rain = 0
KCO1 110229Z 22008KT 11/01 A2979 RMK A01 T01060010  RH  051%=      5-min Rain = 0
KCO1 110230Z 22009KT 11/01 A2979 RMK A01 T01060010  RH  052%=      5-min Rain = 0
KCO1 110231Z 22008KT 11/01 A2979 RMK A01 T01050011  RH  052%=      5-min Rain = 0
KCO1 110232Z 22008KT 11/01 A2979 RMK A01 T01050010  RH  052%=      5-min Rain = 0
KCO1 110233Z 22008KT 11/01 A2979 RMK A01 T01050010  RH  052%=      5-min Rain = 0
KCO1 110234Z 22008KT 11/01 A2979 RMK A01 T01050011  RH  052%=      5-min Rain = 0
KCO1 110235Z 22007KT 11/01 A298 RMK A01 T01050011  RH  052%=      5-min Rain = 0
KCO1 110236Z 22007KT 11/01 A298 RMK A01 T01050010  RH  052%=      5-min Rain = 0
KCO1 110237Z 21008KT 10/01 A2979 RMK A01 T01040010  RH  052%=      5-min Rain = 0
KCO1 110238Z 22009KT 10/01 A2979 RMK A01 T01040011  RH  053%=      5-min Rain = 0
KCO1 110239Z 22010KT 11/01 A2979 RMK A01 T01060012  RH  052%=      5-min Rain = 0
KCO1 110240Z 22009KT 11/01 A2979 RMK A01 T01070012  RH  052%=      5-min Rain = 0
KCO1 110241Z 22009KT 11/01 A2979 RMK A01 T01070012  RH  052%=      5-min Rain = 0
KCO1 110242Z 22009KT 11/01 A2979 RMK A01 T01070012  RH  052%=      5-min Rain = 0
KCO1 110243Z 22009KT 11/01 A2979 RMK A01 T01060012  RH  052%=      5-min Rain = 0
KCO1 110244Z 21009KT 11/01 A2979 RMK A01 T01070013  RH  052%=      5-min Rain = 0
KCO1 110245Z 21010KT 11/01 A2979 RMK A01 T01070014  RH  052%=      5-min Rain = 0
KCO1 110246Z 21010KT 11/01 A2979 RMK A01 T01080014  RH  052%=      5-min Rain = 0
KCO1 110247Z 22010KT 11/02 A2979 RMK A01 T01090015  RH  052%=      5-min Rain = 0
KCO1 110248Z 22010KT 11/01 A2979 RMK A01 T01090014  RH  052%=      5-min Rain = 0
KCO1 110249Z 22009KT 11/01 A2979 RMK A01 T01090014  RH  052%=      5-min Rain = 0
KCO1 110250Z 22009KT 11/01 A2979 RMK A01 T01080014  RH  052%=      5-min Rain = 0
KCO1 110251Z 22008KT 11/01 A2979 RMK A01 T01080014  RH  052%=      5-min Rain = 0
KCO1 110252Z 22009KT 11/01 A2979 RMK A01 T01070014  RH  052%=      5-min Rain = 0
KCO1 110253Z 22009KT 11/01 A2979 RMK A01 T01070014  RH  053%=      5-min Rain = 0
KCO1 110254Z 22008KT 11/01 A2979 RMK A01 T01070014  RH  053%=      5-min Rain = 0
KCO1 110255Z 22007KT 11/01 A2979 RMK A01 T01070014  RH  053%=      5-min Rain = 0
KCO1 110256Z 22008KT 11/01 A2979 RMK A01 T01060014  RH  053%=      5-min Rain = 0
KCO1 110257Z 22008KT 11/01 A2979 RMK A01 T01070014  RH  053%=      5-min Rain = 0
KCO1 110258Z 22008KT 11/01 A2979 RMK A01 T01070014  RH  053%=      5-min Rain = 0
KCO1 110259Z 22008KT 11/01 A2979 RMK A01 T01070014  RH  053%=      5-min Rain = 0
KCO1 110300Z 22008KT 11/01 A2979 RMK A01 T01070014  RH  052%=      5-min Rain = 0
KCO1 110301Z 22008KT 11/01 A2979 RMK A01 T01070014  RH  052%=      5-min Rain = 0
KCO1 110302Z 22008KT 11/01 A2979 RMK A01 T01070014  RH  052%=      5-min Rain = 0
KCO1 110303Z 22009KT 11/01 A2979 RMK A01 T01070013  RH  052%=      5-min Rain = 0
KCO1 110304Z 22009KT 11/01 A2979 RMK A01 T01070013  RH  052%=      5-min Rain = 0
KCO1 110305Z 22009KT 11/01 A2979 RMK A01 T01070014  RH  052%=      5-min Rain = 0
KCO1 110306Z 22009KT 11/01 A2979 RMK A01 T01070014  RH  052%=      5-min Rain = 0
KCO1 110307Z 22008KT 11/01 A2979 RMK A01 T01080013  RH  052%=      5-min Rain = 0
KCO1 110308Z 22010KT 11/01 A2979 RMK A01 T01080013  RH  052%=      5-min Rain = 0
KCO1 110309Z 22009KT 11/01 A2979 RMK A01 T01100014  RH  051%=      5-min Rain = 0
KCO1 110310Z 22009KT 11/01 A2979 RMK A01 T01110013  RH  051%=      5-min Rain = 0
KCO1 110311Z 22009KT 11/01 A2979 RMK A01 T01110013  RH  051%=      5-min Rain = 0
KCO1 110312Z 22010KT 11/01 A2979 RMK A01 T01110013  RH  051%=      5-min Rain = 0
KCO1 110313Z 22009KT 11/01 A2979 RMK A01 T01110014  RH  051%=      5-min Rain = 0
KCO1 110314Z 22009KT 11/01 A2979 RMK A01 T01110013  RH  051%=      5-min Rain = 0
KCO1 110315Z 22009KT 11/01 A2979 RMK A01 T01110013  RH  051%=      5-min Rain = 0
KCO1 110316Z 22009KT 11/01 A2979 RMK A01 T01110013  RH  051%=      5-min Rain = 0
KCO1 110317Z 22010KT 11/01 A2979 RMK A01 T01110014  RH  051%=      5-min Rain = 0
KCO1 110318Z 22010KT 11/01 A2979 RMK A01 T01110014  RH  051%=      5-min Rain = 0
KCO1 110319Z 22010KT 11/01 A2979 RMK A01 T01120014  RH  051%=      5-min Rain = 0
KCO1 110320Z 22010KT 11/01 A2979 RMK A01 T01130014  RH  051%=      5-min Rain = 0
KCO1 110321Z 22011KT 11/01 A2979 RMK A01 T01140014  RH  050%=      5-min Rain = 0
KCO1 110322Z 22011KT 12/01 A2979 RMK A01 T01150014  RH  050%=      5-min Rain = 0
KCO1 110323Z 22010KT 12/02 A2979 RMK A01 T01170015  RH  049%=      5-min Rain = 0
KCO1 110324Z 23009KT 12/01 A2979 RMK A01 T01180014  RH  049%=      5-min Rain = 0
KCO1 110325Z 23009KT 12/01 A2979 RMK A01 T01190014  RH  049%=      5-min Rain = 0
KCO1 110326Z 23009KT 12/01 A2979 RMK A01 T01200013  RH  048%=      5-min Rain = 0
KCO1 110327Z 23010KT 12/01 A298 RMK A01 T01220014  RH  047%=      5-min Rain = 0
KCO1 110328Z 23008KT 12/01 A298 RMK A01 T01230014  RH  047%=      5-min Rain = 0
KCO1 110329Z 22008KT 12/01 A298 RMK A01 T01220013  RH  047%=      5-min Rain = 0
KCO1 110330Z 22008KT 12/01 A2979 RMK A01 T01200013  RH  048%=      5-min Rain = 0
KCO1 110331Z 22008KT 12/01 A2979 RMK A01 T01180013  RH  049%=      5-min Rain = 0
KCO1 110332Z 22009KT 12/01 A2979 RMK A01 T01170013  RH  049%=      5-min Rain = 0
KCO1 110333Z 23008KT 12/01 A298 RMK A01 T01170013  RH  049%=      5-min Rain = 0
KCO1 110334Z 24007KT 12/01 A298 RMK A01 T01170013  RH  049%=      5-min Rain = 0
KCO1 110335Z 24007KT 12/01 A298 RMK A01 T01170013  RH  049%=      5-min Rain = 0
KCO1 110336Z 24007KT 12/01 A298 RMK A01 T01170013  RH  049%=      5-min Rain = 0
KCO1 110337Z 24008KT 12/01 A298 RMK A01 T01180013  RH  048%=      5-min Rain = 0
KCO1 110338Z 25009KT 12/01 A298 RMK A01 T01190012  RH  048%=      5-min Rain = 0
KCO1 110339Z 25010KT 12/01 A298 RMK A01 T01220013  RH  047%=      5-min Rain = 0
KCO1 110340Z 25010KT 13/01 A298 RMK A01 T01250013  RH  046%=      5-min Rain = 0
KCO1 110341Z 25010KT 13/01 A298 RMK A01 T01270012  RH  046%=      5-min Rain = 0
KCO1 110342Z 25011KT 13/01 A298 RMK A01 T01270012  RH  045%=      5-min Rain = 0
KCO1 110343Z 24010KT 13/01 A298 RMK A01 T01270012  RH  045%=      5-min Rain = 0
KCO1 110344Z 22010KT 13/01 A298 RMK A01 T01260011  RH  045%=      5-min Rain = 0
KCO1 110345Z 23011KT 13/01 A298 RMK A01 T01250012  RH  046%=      5-min Rain = 0
KCO1 110346Z 23009KT 13/01 A298 RMK A01 T01250011  RH  046%=      5-min Rain = 0
KCO1 110347Z 24010KT 12/01 A298 RMK A01 T01240011  RH  046%=      5-min Rain = 0
KCO1 110348Z 23010KT 12/01 A298 RMK A01 T01240012  RH  046%=      5-min Rain = 0
KCO1 110349Z 23011KT 12/01 A298 RMK A01 T01240011  RH  046%=      5-min Rain = 0
KCO1 110350Z 23012KT 12/01 A298 RMK A01 T01230011  RH  046%=      5-min Rain = 0
KCO1 110351Z 23011KT 12/01 A298 RMK A01 T01230011  RH  046%=      5-min Rain = 0
KCO1 110352Z 23011KT 12/01 A298 RMK A01 T01230011  RH  046%=      5-min Rain = 0
KCO1 110353Z 23011KT 12/01 A298 RMK A01 T01230012  RH  047%=      5-min Rain = 0
KCO1 110354Z 23011KT 12/01 A2979 RMK A01 T01220012  RH  047%=      5-min Rain = 0
KCO1 110355Z 23011KT 12/01 A2979 RMK A01 T01220012  RH  047%=      5-min Rain = 0
KCO1 110356Z 23011KT 12/01 A2979 RMK A01 T01220012  RH  047%=      5-min Rain = 0
KCO1 110357Z 23011KT 12/01 A2979 RMK A01 T01220011  RH  047%=      5-min Rain = 0
KCO1 110358Z 23012KT 12/01 A2979 RMK A01 T01220011  RH  047%=      5-min Rain = 0
KCO1 110359Z 23012KT 12/01 A2979 RMK A01 T01220011  RH  047%=      5-min Rain = 0
KCO1 110400Z 23012KT 12/01 A2979 RMK A01 T01220011  RH  047%=      5-min Rain = 0
KCO1 110401Z 23011KT 12/01 A2979 RMK A01 T01220011  RH  047%=      5-min Rain = 0
KCO1 110402Z 23012KT 12/01 A2979 RMK A01 T01220011  RH  047%=      5-min Rain = 0
KCO1 110403Z 23011KT 12/01 A2979 RMK A01 T01220011  RH  046%=      5-min Rain = 0
KCO1 110404Z 23014KT 12/01 A2979 RMK A01 T01240011  RH  046%=      5-min Rain = 0
KCO1 110405Z 23013KT 13/01 A2979 RMK A01 T01250011  RH  046%=      5-min Rain = 0
KCO1 110406Z 23011KT 13/01 A2979 RMK A01 T01250010  RH  045%=      5-min Rain = 0
KCO1 110407Z 23012KT 12/01 A2979 RMK A01 T01240010  RH  046%=      5-min Rain = 0
KCO1 110408Z 23011KT 12/01 A2979 RMK A01 T01240010  RH  046%=      5-min Rain = 0
KCO1 110409Z 23011KT 12/01 A2979 RMK A01 T01230010  RH  046%=      5-min Rain = 0
KCO1 110410Z 22011KT 12/01 A2979 RMK A01 T01220010  RH  046%=      5-min Rain = 0
KCO1 110411Z 23012KT 12/01 A2979 RMK A01 T01220010  RH  046%=      5-min Rain = 0
KCO1 110412Z 23011KT 12/01 A2979 RMK A01 T01220010  RH  046%=      5-min Rain = 0
KCO1 110413Z 23013KT 12/01 A2979 RMK A01 T01220010  RH  046%=      5-min Rain = 0
KCO1 110414Z 23012KT 12/01 A2979 RMK A01 T01230010  RH  046%=      5-min Rain = 0
KCO1 110415Z 22013KT 12/01 A2979 RMK A01 T01240010  RH  046%=      5-min Rain = 0
KCO1 110416Z 23013KT 12/01 A2979 RMK A01 T01240009  RH  045%=      5-min Rain = 0
KCO1 110417Z 23012KT 13/01 A2979 RMK A01 T01250009  RH  045%=      5-min Rain = 0
KCO1 110418Z 23013KT 13/01 A2979 RMK A01 T01260009  RH  045%=      5-min Rain = 0
KCO1 110419Z 23013KT 13/01 A2979 RMK A01 T01260009  RH  045%=      5-min Rain = 0
KCO1 110420Z 23012KT 13/01 A2979 RMK A01 T01270009  RH  045%=      5-min Rain = 0
KCO1 110421Z 23012KT 13/01 A2979 RMK A01 T01270008  RH  044%=      5-min Rain = 0
KCO1 110422Z 23012KT 13/01 A2979 RMK A01 T01270008  RH  044%=      5-min Rain = 0
KCO1 110423Z 23012KT 13/01 A2979 RMK A01 T01260008  RH  044%=      5-min Rain = 0
KCO1 110424Z 23012KT 13/01 A2979 RMK A01 T01250008  RH  044%=      5-min Rain = 0
KCO1 110425Z 23012KT 13/01 A2979 RMK A01 T01250007  RH  045%=      5-min Rain = 0
KCO1 110426Z 23011KT 13/01 A2979 RMK A01 T01250008  RH  045%=      5-min Rain = 0
KCO1 110427Z 23011KT 13/01 A2979 RMK A01 T01250007  RH  045%=      5-min Rain = 0
KCO1 110428Z 23012KT 12/01 A2979 RMK A01 T01240007  RH  045%=      5-min Rain = 0
KCO1 110429Z 23011KT 13/01 A2979 RMK A01 T01250007  RH  044%=      5-min Rain = 0
KCO1 110430Z 23010KT 13/01 A2979 RMK A01 T01260007  RH  044%=      5-min Rain = 0
KCO1 110431Z 23010KT 13/01 A2979 RMK A01 T01270006  RH  044%=      5-min Rain = 0
KCO1 110432Z 23011KT 13/01 A2979 RMK A01 T01270006  RH  044%=      5-min Rain = 0
KCO1 110433Z 23010KT 13/01 A2979 RMK A01 T01270006  RH  043%=      5-min Rain = 0
KCO1 110434Z 23010KT 13/01 A2979 RMK A01 T01280006  RH  043%=      5-min Rain = 0
KCO1 110435Z 23011KT 13/01 A2979 RMK A01 T01280006  RH  043%=      5-min Rain = 0
KCO1 110436Z 23010KT 13/01 A2979 RMK A01 T01280006  RH  043%=      5-min Rain = 0
KCO1 110437Z 23011KT 13/01 A2979 RMK A01 T01290006  RH  043%=      5-min Rain = 0
KCO1 110438Z 23010KT 13/01 A2979 RMK A01 T01290005  RH  043%=      5-min Rain = 0
KCO1 110439Z 23009KT 13/01 A2979 RMK A01 T01290005  RH  043%=      5-min Rain = 0
KCO1 110440Z 23010KT 13/01 A2979 RMK A01 T01290005  RH  043%=      5-min Rain = 0
KCO1 110441Z 23011KT 13/01 A2979 RMK A01 T01280005  RH  043%=      5-min Rain = 0
KCO1 110442Z 23010KT 13/01 A2979 RMK A01 T01280005  RH  043%=      5-min Rain = 0
KCO1 110443Z 23010KT 13/01 A2979 RMK A01 T01270005  RH  043%=      5-min Rain = 0
KCO1 110444Z 23009KT 13/00 A2979 RMK A01 T01260004  RH  043%=      5-min Rain = 0
KCO1 110445Z 23008KT 13/00 A2979 RMK A01 T01250004  RH  044%=      5-min Rain = 0
KCO1 110446Z 23009KT 12/00 A2979 RMK A01 T01240004  RH  044%=      5-min Rain = 0
KCO1 110447Z 23009KT 12/00 A2979 RMK A01 T01240004  RH  044%=      5-min Rain = 0
KCO1 110448Z 23008KT 12/00 A2979 RMK A01 T01230004  RH  044%=      5-min Rain = 0
KCO1 110449Z 22009KT 12/00 A2979 RMK A01 T01220004  RH  044%=      5-min Rain = 0
KCO1 110450Z 23010KT 12/00 A2979 RMK A01 T01220004  RH  044%=      5-min Rain = 0
KCO1 110451Z 22010KT 12/00 A2979 RMK A01 T01210004  RH  044%=      5-min Rain = 0
KCO1 110452Z 22011KT 12/00 A2979 RMK A01 T01210004  RH  045%=      5-min Rain = 0
KCO1 110453Z 22011KT 12/00 A2979 RMK A01 T01200004  RH  045%=      5-min Rain = 0
KCO1 110454Z 22011KT 12/00 A2979 RMK A01 T01190004  RH  045%=      5-min Rain = 0
KCO1 110455Z 23011KT 12/00 A2979 RMK A01 T01190004  RH  045%=      5-min Rain = 0
KCO1 110456Z 23011KT 12/00 A2979 RMK A01 T01190004  RH  045%=      5-min Rain = 0
KCO1 110457Z 23010KT 12/00 A2979 RMK A01 T01190004  RH  045%=      5-min Rain = 0
KCO1 110458Z 23010KT 12/00 A2979 RMK A01 T01200004  RH  045%=      5-min Rain = 0
KCO1 110459Z 23010KT 12/00 A2979 RMK A01 T01210004  RH  044%=      5-min Rain = 0
KCO1 110500Z 22011KT 12/00 A2979 RMK A01 T01220004  RH  044%=      5-min Rain = 0
KCO1 110501Z 23011KT 12/00 A2979 RMK A01 T01220004  RH  044%=      5-min Rain = 0
KCO1 110502Z 23012KT 12/00 A2979 RMK A01 T01220003  RH  044%=      5-min Rain = 0
KCO1 110503Z 22012KT 12/00 A2979 RMK A01 T01220003  RH  044%=      5-min Rain = 0
KCO1 110504Z 22013KT 12/00 A2979 RMK A01 T01200003  RH  044%=      5-min Rain = 0
KCO1 110505Z 22013KT 12/00 A2979 RMK A01 T01190003  RH  045%=      5-min Rain = 0
KCO1 110506Z 22013KT 12/00 A2979 RMK A01 T01190003  RH  045%=      5-min Rain = 0
KCO1 110507Z 22014KT 12/00 A2979 RMK A01 T01200003  RH  045%=      5-min Rain = 0
KCO1 110508Z 22013KT 12/00 A2979 RMK A01 T01200002  RH  044%=      5-min Rain = 0
KCO1 110509Z 22014KT 12/00 A2979 RMK A01 T01200002  RH  044%=      5-min Rain = 0
KCO1 110510Z 22014KT 12/00 A2978 RMK A01 T01190002  RH  045%=      5-min Rain = 0
KCO1 110511Z 22015KT 12/00 A2978 RMK A01 T01200002  RH  044%=      5-min Rain = 0
KCO1 110512Z 22014KT 12/00 A2978 RMK A01 T01220002  RH  044%=      5-min Rain = 0
KCO1 110513Z 23014KT 12/00 A2978 RMK A01 T01230002  RH  044%=      5-min Rain = 0
KCO1 110514Z 23013KT 12/00 A2978 RMK A01 T01240002  RH  043%=      5-min Rain = 0
KCO1 110515Z 23014KT 13/00 A2978 RMK A01 T01250002  RH  043%=      5-min Rain = 0
KCO1 110516Z 23015KT 13/00 A2978 RMK A01 T01270002  RH  042%=      5-min Rain = 0
KCO1 110517Z 23014KT 13/00 A2978 RMK A01 T01290002  RH  042%=      5-min Rain = 0
KCO1 110518Z 23013KT 13/00 A2978 RMK A01 T01290002  RH  042%=      5-min Rain = 0
KCO1 110519Z 23013KT 13/00 A2978 RMK A01 T01290001  RH  041%=      5-min Rain = 0
KCO1 110520Z 23013KT 13/00 A2978 RMK A01 T01300002  RH  041%=      5-min Rain = 0
KCO1 110521Z 23014KT 13/00 A2978 RMK A01 T01300002  RH  041%=      5-min Rain = 0
KCO1 110522Z 23014KT 13/00 A2978 RMK A01 T01310002  RH  041%=      5-min Rain = 0
KCO1 110523Z 23014KT 13/00 A2978 RMK A01 T01320002  RH  041%=      5-min Rain = 0
KCO1 110524Z 23014G19KT 13/00 A2978 RMK A01 T01320002  RH  041%=      5-min Rain = 0
KCO1 110525Z 23014KT 13/00 A2978 RMK A01 T01320002  RH  041%=      5-min Rain = 0
KCO1 110526Z 23015G20KT 13/00 A2978 RMK A01 T01320002  RH  041%=      5-min Rain = 0
KCO1 110527Z 23015KT 13/00 A2978 RMK A01 T01320002  RH  041%=      5-min Rain = 0
KCO1 110528Z 23014KT 13/00 A2978 RMK A01 T01320002  RH  041%=      5-min Rain = 0
KCO1 110529Z 23016KT 13/00 A2978 RMK A01 T01310002  RH  041%=      5-min Rain = 0
KCO1 110530Z 23014KT 13/00 A2978 RMK A01 T01310002  RH  041%=      5-min Rain = 0
KCO1 110531Z 23014KT 13/00 A2978 RMK A01 T01300002  RH  041%=      5-min Rain = 0
KCO1 110532Z 24015KT 13/00 A2978 RMK A01 T01310003  RH  041%=      5-min Rain = 0
KCO1 110533Z 24017KT 13/00 A2977 RMK A01 T01320003  RH  041%=      5-min Rain = 0
KCO1 110534Z 24017G24KT 14/00 A2977 RMK A01 T01360004  RH  040%=      5-min Rain = 0
KCO1 110535Z 24014KT 14/00 A2978 RMK A01 T01380004  RH  040%=      5-min Rain = 0
KCO1 110536Z 24014KT 14/00 A2978 RMK A01 T01380003  RH  040%=      5-min Rain = 0
KCO1 110537Z 24012G17KT 14/00 A2978 RMK A01 T01370003  RH  040%=      5-min Rain = 0
KCO1 110538Z 24015KT 14/00 A2978 RMK A01 T01370003  RH  040%=      5-min Rain = 0
KCO1 110539Z 24013G18KT 14/00 A2978 RMK A01 T01360003  RH  040%=      5-min Rain = 0
KCO1 110540Z 24014KT 14/00 A2978 RMK A01 T01360003  RH  040%=      5-min Rain = 0
KCO1 110541Z 25017KT 14/00 A2978 RMK A01 T01360003  RH  040%=      5-min Rain = 0
KCO1 110542Z 24015G20KT 14/00 A2978 RMK A01 T01350003  RH  040%=      5-min Rain = 0
KCO1 110543Z 25014KT 14/00 A2978 RMK A01 T01350003  RH  040%=      5-min Rain = 0
KCO1 110544Z 25015KT 14/00 A2978 RMK A01 T01350003  RH  040%=      5-min Rain = 0
KCO1 110545Z 25016KT 13/00 A2978 RMK A01 T01340002  RH  040%=      5-min Rain = 0
KCO1 110546Z 25016KT 13/00 A2978 RMK A01 T01340002  RH  040%=      5-min Rain = 0
KCO1 110547Z 25015G21KT 13/00 A2978 RMK A01 T01340002  RH  040%=      5-min Rain = 0
KCO1 110548Z 25014KT 13/00 A2978 RMK A01 T01330002  RH  041%=      5-min Rain = 0
KCO1 110549Z 25014KT 13/00 A2978 RMK A01 T01320002  RH  041%=      5-min Rain = 0
KCO1 110550Z 25013KT 13/00 A2978 RMK A01 T01320002  RH  041%=      5-min Rain = 0
KCO1 110551Z 25012KT 13/00 A2979 RMK A01 T01310002  RH  041%=      5-min Rain = 0
KCO1 110552Z 25013KT 13/00 A2979 RMK A01 T01300002  RH  041%=      5-min Rain = 0
KCO1 110553Z 25014KT 13/00 A2979 RMK A01 T01290002  RH  042%=      5-min Rain = 0
KCO1 110554Z 25013KT 13/00 A2979 RMK A01 T01280002  RH  042%=      5-min Rain = 0
KCO1 110555Z 25013KT 13/00 A2979 RMK A01 T01280002  RH  042%=      5-min Rain = 0
KCO1 110556Z 25013KT 13/00 A2979 RMK A01 T01280002  RH  042%=      5-min Rain = 0
KCO1 110557Z 25012KT 13/00 A2979 RMK A01 T01260001  RH  042%=      5-min Rain = 0
KCO1 110558Z 25011KT 13/00 A2979 RMK A01 T01250001  RH  043%=      5-min Rain = 0
KCO1 110559Z 25013KT 12/00 A2979 RMK A01 T01240001  RH  043%=      5-min Rain = 0

Page generated in 0.1916 seconds.